<?xml version="1.0" encoding="UTF-8" standalone="no" ?>
<gpx xmlns="http://www.topografix.com/GPX/1/1" xmlns:xsi="http://www.w3.org/2001/XMLSchema-instance" xsi:schemaLocation="http://www.topografix.com/GPX/1/1 http://www.topografix.com/GPX/1/1/gpx.xsd" version="1.1" creator="VisuGPX - https://www.visugpx.com">
  <metadata>
    <name>VTD22 juin2019</name>
    <desc><![CDATA[Projet pour la ballade de vélo tout doux du 22 juin 2019]]></desc>
  </metadata>
  <trk>
    <name><![CDATA[VTD22 juin2019_1]]></name>
    <trkseg>
      <trkpt lat="50.53904" lon="3.40408">
        <ele>20</ele>
        <time>2019-04-11T14:01:03Z</time>
      </trkpt>
      <trkpt lat="50.53904" lon="3.40408">
        <ele>20</ele>
        <time>2019-04-11T14:01:03Z</time>
      </trkpt>
      <trkpt lat="50.5389" lon="3.40418">
        <ele>21</ele>
        <time>2019-04-11T14:01:08Z</time>
      </trkpt>
      <trkpt lat="50.53878" lon="3.40424">
        <ele>21</ele>
        <time>2019-04-11T14:01:11Z</time>
      </trkpt>
      <trkpt lat="50.53868" lon="3.40428">
        <ele>21</ele>
        <time>2019-04-11T14:01:13Z</time>
      </trkpt>
      <trkpt lat="50.53825" lon="3.40448">
        <ele>21</ele>
        <time>2019-04-11T14:01:22Z</time>
      </trkpt>
      <trkpt lat="50.53805" lon="3.40451">
        <ele>21</ele>
        <time>2019-04-11T14:01:26Z</time>
      </trkpt>
      <trkpt lat="50.53801" lon="3.40446">
        <ele>21</ele>
        <time>2019-04-11T14:01:27Z</time>
      </trkpt>
      <trkpt lat="50.53799" lon="3.40439">
        <ele>20</ele>
        <time>2019-04-11T14:01:28Z</time>
      </trkpt>
      <trkpt lat="50.53797" lon="3.40422">
        <ele>20</ele>
        <time>2019-04-11T14:01:30Z</time>
      </trkpt>
      <trkpt lat="50.53797" lon="3.40414">
        <ele>20</ele>
        <time>2019-04-11T14:01:31Z</time>
      </trkpt>
      <trkpt lat="50.53795" lon="3.40373">
        <ele>20</ele>
        <time>2019-04-11T14:01:37Z</time>
      </trkpt>
      <trkpt lat="50.53792" lon="3.40346">
        <ele>19</ele>
        <time>2019-04-11T14:01:42Z</time>
      </trkpt>
      <trkpt lat="50.5379" lon="3.40317">
        <ele>19</ele>
        <time>2019-04-11T14:01:46Z</time>
      </trkpt>
      <trkpt lat="50.53789" lon="3.40302">
        <ele>19</ele>
        <time>2019-04-11T14:01:48Z</time>
      </trkpt>
      <trkpt lat="50.53787" lon="3.40263">
        <ele>18</ele>
        <time>2019-04-11T14:01:53Z</time>
      </trkpt>
      <trkpt lat="50.53786" lon="3.40245">
        <ele>18</ele>
        <time>2019-04-11T14:01:55Z</time>
      </trkpt>
      <trkpt lat="50.5378" lon="3.40167">
        <ele>18</ele>
        <time>2019-04-11T14:02:04Z</time>
      </trkpt>
      <trkpt lat="50.53769" lon="3.40147">
        <ele>18</ele>
        <time>2019-04-11T14:02:07Z</time>
      </trkpt>
      <trkpt lat="50.53752" lon="3.40139">
        <ele>19</ele>
        <time>2019-04-11T14:02:10Z</time>
      </trkpt>
      <trkpt lat="50.5374" lon="3.40137">
        <ele>19</ele>
        <time>2019-04-11T14:02:12Z</time>
      </trkpt>
      <trkpt lat="50.5371" lon="3.40131">
        <ele>19</ele>
        <time>2019-04-11T14:02:17Z</time>
      </trkpt>
      <trkpt lat="50.53705" lon="3.40131">
        <ele>19</ele>
        <time>2019-04-11T14:02:18Z</time>
      </trkpt>
      <trkpt lat="50.53667" lon="3.40123">
        <ele>19</ele>
        <time>2019-04-11T14:02:25Z</time>
      </trkpt>
      <trkpt lat="50.53642" lon="3.40119">
        <ele>20</ele>
        <time>2019-04-11T14:02:30Z</time>
      </trkpt>
      <trkpt lat="50.53629" lon="3.40117">
        <ele>20</ele>
        <time>2019-04-11T14:02:33Z</time>
      </trkpt>
      <trkpt lat="50.53607" lon="3.40111">
        <ele>21</ele>
        <time>2019-04-11T14:02:38Z</time>
      </trkpt>
      <trkpt lat="50.53598" lon="3.4011">
        <ele>21</ele>
        <time>2019-04-11T14:02:40Z</time>
      </trkpt>
      <trkpt lat="50.53586" lon="3.40106">
        <ele>21</ele>
        <time>2019-04-11T14:02:43Z</time>
      </trkpt>
      <trkpt lat="50.53575" lon="3.40102">
        <ele>21</ele>
        <time>2019-04-11T14:02:46Z</time>
      </trkpt>
      <trkpt lat="50.53549" lon="3.4009">
        <ele>22</ele>
        <time>2019-04-11T14:02:52Z</time>
      </trkpt>
      <trkpt lat="50.53531" lon="3.40073">
        <ele>21</ele>
        <time>2019-04-11T14:02:57Z</time>
      </trkpt>
      <trkpt lat="50.53507" lon="3.40052">
        <ele>22</ele>
        <time>2019-04-11T14:03:03Z</time>
      </trkpt>
      <trkpt lat="50.53477" lon="3.40022">
        <ele>22</ele>
        <time>2019-04-11T14:03:11Z</time>
      </trkpt>
      <trkpt lat="50.53474" lon="3.40019">
        <ele>22</ele>
        <time>2019-04-11T14:03:12Z</time>
      </trkpt>
      <trkpt lat="50.53472" lon="3.40013">
        <ele>22</ele>
        <time>2019-04-11T14:03:13Z</time>
      </trkpt>
      <trkpt lat="50.53469" lon="3.3999">
        <ele>22</ele>
        <time>2019-04-11T14:03:16Z</time>
      </trkpt>
      <trkpt lat="50.53475" lon="3.39969">
        <ele>22</ele>
        <time>2019-04-11T14:03:19Z</time>
      </trkpt>
      <trkpt lat="50.53482" lon="3.39949">
        <ele>22</ele>
        <time>2019-04-11T14:03:22Z</time>
      </trkpt>
      <trkpt lat="50.53487" lon="3.39936">
        <ele>22</ele>
        <time>2019-04-11T14:03:24Z</time>
      </trkpt>
      <trkpt lat="50.53495" lon="3.39908">
        <ele>22</ele>
        <time>2019-04-11T14:03:28Z</time>
      </trkpt>
      <trkpt lat="50.53493" lon="3.39892">
        <ele>22</ele>
        <time>2019-04-11T14:03:30Z</time>
      </trkpt>
      <trkpt lat="50.53484" lon="3.39872">
        <ele>22</ele>
        <time>2019-04-11T14:03:33Z</time>
      </trkpt>
      <trkpt lat="50.53482" lon="3.39866">
        <ele>21</ele>
        <time>2019-04-11T14:03:34Z</time>
      </trkpt>
      <trkpt lat="50.53462" lon="3.39819">
        <ele>23</ele>
        <time>2019-04-11T14:03:41Z</time>
      </trkpt>
      <trkpt lat="50.53442" lon="3.39768">
        <ele>22</ele>
        <time>2019-04-11T14:03:49Z</time>
      </trkpt>
      <trkpt lat="50.5344" lon="3.39761">
        <ele>23</ele>
        <time>2019-04-11T14:03:50Z</time>
      </trkpt>
      <trkpt lat="50.53436" lon="3.39732">
        <ele>23</ele>
        <time>2019-04-11T14:03:54Z</time>
      </trkpt>
      <trkpt lat="50.53436" lon="3.39725">
        <ele>22</ele>
        <time>2019-04-11T14:03:55Z</time>
      </trkpt>
      <trkpt lat="50.53433" lon="3.39681">
        <ele>23</ele>
        <time>2019-04-11T14:04:01Z</time>
      </trkpt>
      <trkpt lat="50.53429" lon="3.39605">
        <ele>23</ele>
        <time>2019-04-11T14:04:11Z</time>
      </trkpt>
      <trkpt lat="50.53426" lon="3.39567">
        <ele>23</ele>
        <time>2019-04-11T14:04:16Z</time>
      </trkpt>
      <trkpt lat="50.53426" lon="3.39559">
        <ele>23</ele>
        <time>2019-04-11T14:04:17Z</time>
      </trkpt>
      <trkpt lat="50.53415" lon="3.39499">
        <ele>24</ele>
        <time>2019-04-11T14:04:25Z</time>
      </trkpt>
      <trkpt lat="50.53399" lon="3.39461">
        <ele>24</ele>
        <time>2019-04-11T14:04:31Z</time>
      </trkpt>
      <trkpt lat="50.53384" lon="3.3944">
        <ele>24</ele>
        <time>2019-04-11T14:04:35Z</time>
      </trkpt>
      <trkpt lat="50.53376" lon="3.3943">
        <ele>24</ele>
        <time>2019-04-11T14:04:37Z</time>
      </trkpt>
      <trkpt lat="50.53344" lon="3.39392">
        <ele>25</ele>
        <time>2019-04-11T14:04:45Z</time>
      </trkpt>
      <trkpt lat="50.53342" lon="3.39367">
        <ele>25</ele>
        <time>2019-04-11T14:04:48Z</time>
      </trkpt>
      <trkpt lat="50.53344" lon="3.39352">
        <ele>25</ele>
        <time>2019-04-11T14:04:50Z</time>
      </trkpt>
      <trkpt lat="50.53346" lon="3.39329">
        <ele>25</ele>
        <time>2019-04-11T14:04:53Z</time>
      </trkpt>
      <trkpt lat="50.53348" lon="3.39306">
        <ele>25</ele>
        <time>2019-04-11T14:04:56Z</time>
      </trkpt>
      <trkpt lat="50.5335" lon="3.39275">
        <ele>26</ele>
        <time>2019-04-11T14:05:00Z</time>
      </trkpt>
      <trkpt lat="50.53356" lon="3.39216">
        <ele>26</ele>
        <time>2019-04-11T14:05:08Z</time>
      </trkpt>
      <trkpt lat="50.53359" lon="3.39188">
        <ele>26</ele>
        <time>2019-04-11T14:05:13Z</time>
      </trkpt>
      <trkpt lat="50.53363" lon="3.39138">
        <ele>27</ele>
        <time>2019-04-11T14:05:20Z</time>
      </trkpt>
      <trkpt lat="50.53367" lon="3.39099">
        <ele>27</ele>
        <time>2019-04-11T14:05:25Z</time>
      </trkpt>
      <trkpt lat="50.5337" lon="3.3907">
        <ele>28</ele>
        <time>2019-04-11T14:05:29Z</time>
      </trkpt>
      <trkpt lat="50.53375" lon="3.39048">
        <ele>28</ele>
        <time>2019-04-11T14:05:32Z</time>
      </trkpt>
      <trkpt lat="50.53381" lon="3.39036">
        <ele>28</ele>
        <time>2019-04-11T14:05:34Z</time>
      </trkpt>
      <trkpt lat="50.53389" lon="3.39027">
        <ele>28</ele>
        <time>2019-04-11T14:05:36Z</time>
      </trkpt>
      <trkpt lat="50.53393" lon="3.39023">
        <ele>28</ele>
        <time>2019-04-11T14:05:37Z</time>
      </trkpt>
      <trkpt lat="50.53401" lon="3.39017">
        <ele>28</ele>
        <time>2019-04-11T14:05:39Z</time>
      </trkpt>
      <trkpt lat="50.53423" lon="3.38992">
        <ele>28</ele>
        <time>2019-04-11T14:05:45Z</time>
      </trkpt>
      <trkpt lat="50.53426" lon="3.38988">
        <ele>28</ele>
        <time>2019-04-11T14:05:46Z</time>
      </trkpt>
      <trkpt lat="50.53434" lon="3.38974">
        <ele>28</ele>
        <time>2019-04-11T14:05:49Z</time>
      </trkpt>
      <trkpt lat="50.53442" lon="3.38958">
        <ele>27</ele>
        <time>2019-04-11T14:05:52Z</time>
      </trkpt>
      <trkpt lat="50.53446" lon="3.38946">
        <ele>27</ele>
        <time>2019-04-11T14:05:54Z</time>
      </trkpt>
      <trkpt lat="50.53449" lon="3.38934">
        <ele>27</ele>
        <time>2019-04-11T14:05:56Z</time>
      </trkpt>
      <trkpt lat="50.53453" lon="3.38923">
        <ele>27</ele>
        <time>2019-04-11T14:05:58Z</time>
      </trkpt>
      <trkpt lat="50.5346" lon="3.38898">
        <ele>26</ele>
        <time>2019-04-11T14:06:03Z</time>
      </trkpt>
      <trkpt lat="50.53462" lon="3.38893">
        <ele>26</ele>
        <time>2019-04-11T14:06:04Z</time>
      </trkpt>
      <trkpt lat="50.53471" lon="3.38861">
        <ele>26</ele>
        <time>2019-04-11T14:06:09Z</time>
      </trkpt>
      <trkpt lat="50.53486" lon="3.38811">
        <ele>26</ele>
        <time>2019-04-11T14:06:16Z</time>
      </trkpt>
      <trkpt lat="50.53488" lon="3.38803">
        <ele>25</ele>
        <time>2019-04-11T14:06:17Z</time>
      </trkpt>
      <trkpt lat="50.53506" lon="3.38743">
        <ele>24</ele>
        <time>2019-04-11T14:06:25Z</time>
      </trkpt>
      <trkpt lat="50.53508" lon="3.38736">
        <ele>24</ele>
        <time>2019-04-11T14:06:26Z</time>
      </trkpt>
      <trkpt lat="50.53511" lon="3.38721">
        <ele>24</ele>
        <time>2019-04-11T14:06:28Z</time>
      </trkpt>
      <trkpt lat="50.53511" lon="3.38703">
        <ele>24</ele>
        <time>2019-04-11T14:06:30Z</time>
      </trkpt>
      <trkpt lat="50.53501" lon="3.38673">
        <ele>24</ele>
        <time>2019-04-11T14:06:34Z</time>
      </trkpt>
      <trkpt lat="50.53488" lon="3.38673">
        <ele>24</ele>
        <time>2019-04-11T14:06:37Z</time>
      </trkpt>
      <trkpt lat="50.53484" lon="3.38675">
        <ele>24</ele>
        <time>2019-04-11T14:06:38Z</time>
      </trkpt>
      <trkpt lat="50.53447" lon="3.38693">
        <ele>25</ele>
        <time>2019-04-11T14:06:46Z</time>
      </trkpt>
      <trkpt lat="50.534" lon="3.38715">
        <ele>26</ele>
        <time>2019-04-11T14:06:56Z</time>
      </trkpt>
      <trkpt lat="50.5339" lon="3.3872">
        <ele>26</ele>
        <time>2019-04-11T14:06:58Z</time>
      </trkpt>
      <trkpt lat="50.5336" lon="3.38735">
        <ele>27</ele>
        <time>2019-04-11T14:07:04Z</time>
      </trkpt>
      <trkpt lat="50.53341" lon="3.38745">
        <ele>27</ele>
        <time>2019-04-11T14:07:08Z</time>
      </trkpt>
      <trkpt lat="50.53309" lon="3.38761">
        <ele>28</ele>
        <time>2019-04-11T14:07:15Z</time>
      </trkpt>
      <trkpt lat="50.5329" lon="3.3877">
        <ele>28</ele>
        <time>2019-04-11T14:07:19Z</time>
      </trkpt>
      <trkpt lat="50.53263" lon="3.38783">
        <ele>29</ele>
        <time>2019-04-11T14:07:25Z</time>
      </trkpt>
      <trkpt lat="50.53244" lon="3.38792">
        <ele>30</ele>
        <time>2019-04-11T14:07:29Z</time>
      </trkpt>
      <trkpt lat="50.53221" lon="3.38803">
        <ele>30</ele>
        <time>2019-04-11T14:07:34Z</time>
      </trkpt>
      <trkpt lat="50.53208" lon="3.3881">
        <ele>31</ele>
        <time>2019-04-11T14:07:37Z</time>
      </trkpt>
      <trkpt lat="50.53181" lon="3.38823">
        <ele>31</ele>
        <time>2019-04-11T14:07:43Z</time>
      </trkpt>
      <trkpt lat="50.53149" lon="3.38839">
        <ele>32</ele>
        <time>2019-04-11T14:07:50Z</time>
      </trkpt>
      <trkpt lat="50.53144" lon="3.38842">
        <ele>32</ele>
        <time>2019-04-11T14:07:51Z</time>
      </trkpt>
      <trkpt lat="50.53109" lon="3.38858">
        <ele>32</ele>
        <time>2019-04-11T14:07:59Z</time>
      </trkpt>
      <trkpt lat="50.53072" lon="3.38869">
        <ele>32</ele>
        <time>2019-04-11T14:08:07Z</time>
      </trkpt>
      <trkpt lat="50.53035" lon="3.3887">
        <ele>32</ele>
        <time>2019-04-11T14:08:15Z</time>
      </trkpt>
      <trkpt lat="50.53" lon="3.38864">
        <ele>32</ele>
        <time>2019-04-11T14:08:23Z</time>
      </trkpt>
      <trkpt lat="50.52969" lon="3.3886">
        <ele>32</ele>
        <time>2019-04-11T14:08:30Z</time>
      </trkpt>
      <trkpt lat="50.52929" lon="3.38855">
        <ele>32</ele>
        <time>2019-04-11T14:08:39Z</time>
      </trkpt>
      <trkpt lat="50.52886" lon="3.3885">
        <ele>32</ele>
        <time>2019-04-11T14:08:48Z</time>
      </trkpt>
      <trkpt lat="50.52851" lon="3.38846">
        <ele>32</ele>
        <time>2019-04-11T14:08:56Z</time>
      </trkpt>
      <trkpt lat="50.5281" lon="3.38839">
        <ele>32</ele>
        <time>2019-04-11T14:09:05Z</time>
      </trkpt>
      <trkpt lat="50.52779" lon="3.38836">
        <ele>32</ele>
        <time>2019-04-11T14:09:12Z</time>
      </trkpt>
      <trkpt lat="50.52749" lon="3.38833">
        <ele>32</ele>
        <time>2019-04-11T14:09:19Z</time>
      </trkpt>
      <trkpt lat="50.52719" lon="3.38827">
        <ele>32</ele>
        <time>2019-04-11T14:09:25Z</time>
      </trkpt>
      <trkpt lat="50.52693" lon="3.38824">
        <ele>33</ele>
        <time>2019-04-11T14:09:30Z</time>
      </trkpt>
      <trkpt lat="50.52683" lon="3.38822">
        <ele>33</ele>
        <time>2019-04-11T14:09:32Z</time>
      </trkpt>
      <trkpt lat="50.52678" lon="3.3882">
        <ele>32</ele>
        <time>2019-04-11T14:09:33Z</time>
      </trkpt>
      <trkpt lat="50.52653" lon="3.38812">
        <ele>32</ele>
        <time>2019-04-11T14:09:38Z</time>
      </trkpt>
      <trkpt lat="50.52604" lon="3.38799">
        <ele>32</ele>
        <time>2019-04-11T14:09:48Z</time>
      </trkpt>
      <trkpt lat="50.52554" lon="3.38787">
        <ele>32</ele>
        <time>2019-04-11T14:09:58Z</time>
      </trkpt>
      <trkpt lat="50.52514" lon="3.38776">
        <ele>32</ele>
        <time>2019-04-11T14:10:06Z</time>
      </trkpt>
      <trkpt lat="50.52489" lon="3.38769">
        <ele>32</ele>
        <time>2019-04-11T14:10:11Z</time>
      </trkpt>
      <trkpt lat="50.52479" lon="3.38767">
        <ele>32</ele>
        <time>2019-04-11T14:10:13Z</time>
      </trkpt>
      <trkpt lat="50.52438" lon="3.38756">
        <ele>32</ele>
        <time>2019-04-11T14:10:22Z</time>
      </trkpt>
      <trkpt lat="50.52421" lon="3.38751">
        <ele>33</ele>
        <time>2019-04-11T14:10:26Z</time>
      </trkpt>
      <trkpt lat="50.52412" lon="3.38749">
        <ele>33</ele>
        <time>2019-04-11T14:10:28Z</time>
      </trkpt>
      <trkpt lat="50.52376" lon="3.38739">
        <ele>34</ele>
        <time>2019-04-11T14:10:35Z</time>
      </trkpt>
      <trkpt lat="50.52371" lon="3.38738">
        <ele>34</ele>
        <time>2019-04-11T14:10:36Z</time>
      </trkpt>
      <trkpt lat="50.52337" lon="3.38742">
        <ele>34</ele>
        <time>2019-04-11T14:10:43Z</time>
      </trkpt>
      <trkpt lat="50.52329" lon="3.38746">
        <ele>35</ele>
        <time>2019-04-11T14:10:45Z</time>
      </trkpt>
      <trkpt lat="50.52308" lon="3.38756">
        <ele>35</ele>
        <time>2019-04-11T14:10:50Z</time>
      </trkpt>
      <trkpt lat="50.52286" lon="3.3877">
        <ele>36</ele>
        <time>2019-04-11T14:10:55Z</time>
      </trkpt>
      <trkpt lat="50.52274" lon="3.3878">
        <ele>36</ele>
        <time>2019-04-11T14:10:58Z</time>
      </trkpt>
      <trkpt lat="50.52244" lon="3.38812">
        <ele>36</ele>
        <time>2019-04-11T14:11:06Z</time>
      </trkpt>
      <trkpt lat="50.52227" lon="3.38826">
        <ele>36</ele>
        <time>2019-04-11T14:11:10Z</time>
      </trkpt>
      <trkpt lat="50.52217" lon="3.38829">
        <ele>36</ele>
        <time>2019-04-11T14:11:12Z</time>
      </trkpt>
      <trkpt lat="50.52197" lon="3.38826">
        <ele>36</ele>
        <time>2019-04-11T14:11:16Z</time>
      </trkpt>
      <trkpt lat="50.52181" lon="3.38811">
        <ele>36</ele>
        <time>2019-04-11T14:11:20Z</time>
      </trkpt>
      <trkpt lat="50.52176" lon="3.38806">
        <ele>36</ele>
        <time>2019-04-11T14:11:21Z</time>
      </trkpt>
      <trkpt lat="50.52145" lon="3.38767">
        <ele>36</ele>
        <time>2019-04-11T14:11:29Z</time>
      </trkpt>
      <trkpt lat="50.52117" lon="3.38739">
        <ele>36</ele>
        <time>2019-04-11T14:11:36Z</time>
      </trkpt>
      <trkpt lat="50.52104" lon="3.38733">
        <ele>36</ele>
        <time>2019-04-11T14:11:39Z</time>
      </trkpt>
      <trkpt lat="50.52096" lon="3.38734">
        <ele>36</ele>
        <time>2019-04-11T14:11:41Z</time>
      </trkpt>
      <trkpt lat="50.52086" lon="3.38751">
        <ele>37</ele>
        <time>2019-04-11T14:11:44Z</time>
      </trkpt>
      <trkpt lat="50.52082" lon="3.38773">
        <ele>37</ele>
        <time>2019-04-11T14:11:47Z</time>
      </trkpt>
      <trkpt lat="50.52078" lon="3.38796">
        <ele>37</ele>
        <time>2019-04-11T14:11:50Z</time>
      </trkpt>
      <trkpt lat="50.52065" lon="3.38872">
        <ele>38</ele>
        <time>2019-04-11T14:12:00Z</time>
      </trkpt>
      <trkpt lat="50.52058" lon="3.38912">
        <ele>38</ele>
        <time>2019-04-11T14:12:06Z</time>
      </trkpt>
      <trkpt lat="50.52051" lon="3.38922">
        <ele>38</ele>
        <time>2019-04-11T14:12:08Z</time>
      </trkpt>
      <trkpt lat="50.52046" lon="3.38925">
        <ele>38</ele>
        <time>2019-04-11T14:12:09Z</time>
      </trkpt>
      <trkpt lat="50.52027" lon="3.38923">
        <ele>38</ele>
        <time>2019-04-11T14:12:13Z</time>
      </trkpt>
      <trkpt lat="50.52022" lon="3.38922">
        <ele>38</ele>
        <time>2019-04-11T14:12:14Z</time>
      </trkpt>
      <trkpt lat="50.51998" lon="3.38919">
        <ele>39</ele>
        <time>2019-04-11T14:12:19Z</time>
      </trkpt>
      <trkpt lat="50.51983" lon="3.38918">
        <ele>40</ele>
        <time>2019-04-11T14:12:22Z</time>
      </trkpt>
      <trkpt lat="50.51953" lon="3.38922">
        <ele>40</ele>
        <time>2019-04-11T14:12:28Z</time>
      </trkpt>
      <trkpt lat="50.51935" lon="3.38927">
        <ele>41</ele>
        <time>2019-04-11T14:12:32Z</time>
      </trkpt>
      <trkpt lat="50.51917" lon="3.38932">
        <ele>41</ele>
        <time>2019-04-11T14:12:36Z</time>
      </trkpt>
      <trkpt lat="50.51913" lon="3.38936">
        <ele>41</ele>
        <time>2019-04-11T14:12:37Z</time>
      </trkpt>
      <trkpt lat="50.51901" lon="3.38959">
        <ele>41</ele>
        <time>2019-04-11T14:12:41Z</time>
      </trkpt>
      <trkpt lat="50.51897" lon="3.38982">
        <ele>40</ele>
        <time>2019-04-11T14:12:44Z</time>
      </trkpt>
      <trkpt lat="50.51894" lon="3.38997">
        <ele>40</ele>
        <time>2019-04-11T14:12:46Z</time>
      </trkpt>
      <trkpt lat="50.51883" lon="3.39057">
        <ele>40</ele>
        <time>2019-04-11T14:12:54Z</time>
      </trkpt>
      <trkpt lat="50.51868" lon="3.39107">
        <ele>39</ele>
        <time>2019-04-11T14:13:01Z</time>
      </trkpt>
      <trkpt lat="50.51863" lon="3.39121">
        <ele>39</ele>
        <time>2019-04-11T14:13:03Z</time>
      </trkpt>
      <trkpt lat="50.51849" lon="3.39159">
        <ele>39</ele>
        <time>2019-04-11T14:13:09Z</time>
      </trkpt>
      <trkpt lat="50.51834" lon="3.3919">
        <ele>38</ele>
        <time>2019-04-11T14:13:14Z</time>
      </trkpt>
      <trkpt lat="50.51829" lon="3.39203">
        <ele>38</ele>
        <time>2019-04-11T14:13:16Z</time>
      </trkpt>
      <trkpt lat="50.51807" lon="3.39256">
        <ele>38</ele>
        <time>2019-04-11T14:13:24Z</time>
      </trkpt>
      <trkpt lat="50.51796" lon="3.39279">
        <ele>37</ele>
        <time>2019-04-11T14:13:28Z</time>
      </trkpt>
      <trkpt lat="50.51789" lon="3.39289">
        <ele>38</ele>
        <time>2019-04-11T14:13:30Z</time>
      </trkpt>
      <trkpt lat="50.51765" lon="3.39301">
        <ele>38</ele>
        <time>2019-04-11T14:13:35Z</time>
      </trkpt>
      <trkpt lat="50.5174" lon="3.39293">
        <ele>38</ele>
        <time>2019-04-11T14:13:40Z</time>
      </trkpt>
      <trkpt lat="50.5169" lon="3.39268">
        <ele>38</ele>
        <time>2019-04-11T14:13:50Z</time>
      </trkpt>
      <trkpt lat="50.51661" lon="3.39252">
        <ele>38</ele>
        <time>2019-04-11T14:13:56Z</time>
      </trkpt>
      <trkpt lat="50.51616" lon="3.3923">
        <ele>38</ele>
        <time>2019-04-11T14:14:05Z</time>
      </trkpt>
      <trkpt lat="50.5158" lon="3.39211">
        <ele>37</ele>
        <time>2019-04-11T14:14:13Z</time>
      </trkpt>
      <trkpt lat="50.51554" lon="3.39199">
        <ele>37</ele>
        <time>2019-04-11T14:14:19Z</time>
      </trkpt>
      <trkpt lat="50.51545" lon="3.39194">
        <ele>37</ele>
        <time>2019-04-11T14:14:21Z</time>
      </trkpt>
      <trkpt lat="50.51492" lon="3.39167">
        <ele>37</ele>
        <time>2019-04-11T14:14:32Z</time>
      </trkpt>
      <trkpt lat="50.51487" lon="3.39165">
        <ele>37</ele>
        <time>2019-04-11T14:14:33Z</time>
      </trkpt>
      <trkpt lat="50.51448" lon="3.39146">
        <ele>38</ele>
        <time>2019-04-11T14:14:41Z</time>
      </trkpt>
      <trkpt lat="50.51406" lon="3.39124">
        <ele>38</ele>
        <time>2019-04-11T14:14:49Z</time>
      </trkpt>
      <trkpt lat="50.5139" lon="3.39116">
        <ele>38</ele>
        <time>2019-04-11T14:14:52Z</time>
      </trkpt>
      <trkpt lat="50.51363" lon="3.39103">
        <ele>38</ele>
        <time>2019-04-11T14:14:57Z</time>
      </trkpt>
      <trkpt lat="50.51311" lon="3.39077">
        <ele>38</ele>
        <time>2019-04-11T14:15:07Z</time>
      </trkpt>
      <trkpt lat="50.51305" lon="3.39074">
        <ele>38</ele>
        <time>2019-04-11T14:15:08Z</time>
      </trkpt>
      <trkpt lat="50.51264" lon="3.39053">
        <ele>38</ele>
        <time>2019-04-11T14:15:16Z</time>
      </trkpt>
      <trkpt lat="50.51223" lon="3.39033">
        <ele>39</ele>
        <time>2019-04-11T14:15:24Z</time>
      </trkpt>
      <trkpt lat="50.51191" lon="3.39018">
        <ele>39</ele>
        <time>2019-04-11T14:15:30Z</time>
      </trkpt>
      <trkpt lat="50.51182" lon="3.39008">
        <ele>39</ele>
        <time>2019-04-11T14:15:32Z</time>
      </trkpt>
      <trkpt lat="50.51148" lon="3.38959">
        <ele>38</ele>
        <time>2019-04-11T14:15:40Z</time>
      </trkpt>
      <trkpt lat="50.51115" lon="3.38906">
        <ele>38</ele>
        <time>2019-04-11T14:15:48Z</time>
      </trkpt>
      <trkpt lat="50.51103" lon="3.38876">
        <ele>38</ele>
        <time>2019-04-11T14:15:52Z</time>
      </trkpt>
      <trkpt lat="50.51098" lon="3.38861">
        <ele>38</ele>
        <time>2019-04-11T14:15:54Z</time>
      </trkpt>
      <trkpt lat="50.51074" lon="3.3881">
        <ele>38</ele>
        <time>2019-04-11T14:16:01Z</time>
      </trkpt>
      <trkpt lat="50.51047" lon="3.38762">
        <ele>38</ele>
        <time>2019-04-11T14:16:08Z</time>
      </trkpt>
      <trkpt lat="50.51018" lon="3.38704">
        <ele>38</ele>
        <time>2019-04-11T14:16:16Z</time>
      </trkpt>
      <trkpt lat="50.51002" lon="3.38653">
        <ele>38</ele>
        <time>2019-04-11T14:16:22Z</time>
      </trkpt>
      <trkpt lat="50.50993" lon="3.38605">
        <ele>37</ele>
        <time>2019-04-11T14:16:27Z</time>
      </trkpt>
      <trkpt lat="50.5099" lon="3.38588">
        <ele>37</ele>
        <time>2019-04-11T14:16:29Z</time>
      </trkpt>
      <trkpt lat="50.50984" lon="3.38552">
        <ele>36</ele>
        <time>2019-04-11T14:16:34Z</time>
      </trkpt>
      <trkpt lat="50.50983" lon="3.38545">
        <ele>36</ele>
        <time>2019-04-11T14:16:35Z</time>
      </trkpt>
      <trkpt lat="50.50981" lon="3.38525">
        <ele>35</ele>
        <time>2019-04-11T14:16:38Z</time>
      </trkpt>
      <trkpt lat="50.50978" lon="3.38511">
        <ele>35</ele>
        <time>2019-04-11T14:16:40Z</time>
      </trkpt>
      <trkpt lat="50.50962" lon="3.38487">
        <ele>35</ele>
        <time>2019-04-11T14:16:44Z</time>
      </trkpt>
      <trkpt lat="50.50952" lon="3.38478">
        <ele>34</ele>
        <time>2019-04-11T14:16:46Z</time>
      </trkpt>
      <trkpt lat="50.50929" lon="3.3846">
        <ele>34</ele>
        <time>2019-04-11T14:16:50Z</time>
      </trkpt>
      <trkpt lat="50.50899" lon="3.38436">
        <ele>32</ele>
        <time>2019-04-11T14:16:55Z</time>
      </trkpt>
      <trkpt lat="50.50869" lon="3.38414">
        <ele>32</ele>
        <time>2019-04-11T14:17:00Z</time>
      </trkpt>
      <trkpt lat="50.50859" lon="3.3842">
        <ele>32</ele>
        <time>2019-04-11T14:17:02Z</time>
      </trkpt>
      <trkpt lat="50.50851" lon="3.38443">
        <ele>31</ele>
        <time>2019-04-11T14:17:05Z</time>
      </trkpt>
      <trkpt lat="50.5085" lon="3.38452">
        <ele>31</ele>
        <time>2019-04-11T14:17:06Z</time>
      </trkpt>
      <trkpt lat="50.50842" lon="3.38502">
        <ele>31</ele>
        <time>2019-04-11T14:17:12Z</time>
      </trkpt>
      <trkpt lat="50.50835" lon="3.38533">
        <ele>31</ele>
        <time>2019-04-11T14:17:16Z</time>
      </trkpt>
      <trkpt lat="50.50827" lon="3.38554">
        <ele>32</ele>
        <time>2019-04-11T14:17:19Z</time>
      </trkpt>
      <trkpt lat="50.50815" lon="3.38571">
        <ele>32</ele>
        <time>2019-04-11T14:17:22Z</time>
      </trkpt>
      <trkpt lat="50.50811" lon="3.38576">
        <ele>32</ele>
        <time>2019-04-11T14:17:23Z</time>
      </trkpt>
      <trkpt lat="50.50807" lon="3.38581">
        <ele>33</ele>
        <time>2019-04-11T14:17:24Z</time>
      </trkpt>
      <trkpt lat="50.50798" lon="3.38588">
        <ele>32</ele>
        <time>2019-04-11T14:17:26Z</time>
      </trkpt>
      <trkpt lat="50.50785" lon="3.38593">
        <ele>32</ele>
        <time>2019-04-11T14:17:29Z</time>
      </trkpt>
      <trkpt lat="50.50767" lon="3.38593">
        <ele>33</ele>
        <time>2019-04-11T14:17:34Z</time>
      </trkpt>
      <trkpt lat="50.50749" lon="3.38585">
        <ele>33</ele>
        <time>2019-04-11T14:17:39Z</time>
      </trkpt>
      <trkpt lat="50.50733" lon="3.38574">
        <ele>33</ele>
        <time>2019-04-11T14:17:45Z</time>
      </trkpt>
      <trkpt lat="50.50718" lon="3.38569">
        <ele>33</ele>
        <time>2019-04-11T14:17:51Z</time>
      </trkpt>
      <trkpt lat="50.50707" lon="3.38563">
        <ele>33</ele>
        <time>2019-04-11T14:17:56Z</time>
      </trkpt>
      <trkpt lat="50.50692" lon="3.38559">
        <ele>33</ele>
        <time>2019-04-11T14:18:00Z</time>
      </trkpt>
      <trkpt lat="50.5067" lon="3.38547">
        <ele>33</ele>
        <time>2019-04-11T14:18:06Z</time>
      </trkpt>
      <trkpt lat="50.50666" lon="3.38545">
        <ele>33</ele>
        <time>2019-04-11T14:18:07Z</time>
      </trkpt>
      <trkpt lat="50.50652" lon="3.38536">
        <ele>32</ele>
        <time>2019-04-11T14:18:10Z</time>
      </trkpt>
      <trkpt lat="50.50641" lon="3.38529">
        <ele>32</ele>
        <time>2019-04-11T14:18:12Z</time>
      </trkpt>
      <trkpt lat="50.50617" lon="3.38514">
        <ele>31</ele>
        <time>2019-04-11T14:18:16Z</time>
      </trkpt>
      <trkpt lat="50.50592" lon="3.38496">
        <ele>30</ele>
        <time>2019-04-11T14:18:20Z</time>
      </trkpt>
      <trkpt lat="50.50579" lon="3.38486">
        <ele>30</ele>
        <time>2019-04-11T14:18:22Z</time>
      </trkpt>
      <trkpt lat="50.50543" lon="3.38461">
        <ele>29</ele>
        <time>2019-04-11T14:18:27Z</time>
      </trkpt>
      <trkpt lat="50.50536" lon="3.38456">
        <ele>29</ele>
        <time>2019-04-11T14:18:28Z</time>
      </trkpt>
      <trkpt lat="50.50506" lon="3.38436">
        <ele>28</ele>
        <time>2019-04-11T14:18:32Z</time>
      </trkpt>
      <trkpt lat="50.50477" lon="3.38415">
        <ele>27</ele>
        <time>2019-04-11T14:18:36Z</time>
      </trkpt>
      <trkpt lat="50.50446" lon="3.38398">
        <ele>25</ele>
        <time>2019-04-11T14:18:40Z</time>
      </trkpt>
      <trkpt lat="50.50431" lon="3.38392">
        <ele>24</ele>
        <time>2019-04-11T14:18:42Z</time>
      </trkpt>
      <trkpt lat="50.50424" lon="3.38389">
        <ele>24</ele>
        <time>2019-04-11T14:18:43Z</time>
      </trkpt>
      <trkpt lat="50.5038" lon="3.38366">
        <ele>23</ele>
        <time>2019-04-11T14:18:49Z</time>
      </trkpt>
      <trkpt lat="50.50373" lon="3.38362">
        <ele>23</ele>
        <time>2019-04-11T14:18:50Z</time>
      </trkpt>
      <trkpt lat="50.50333" lon="3.38339">
        <ele>22</ele>
        <time>2019-04-11T14:18:56Z</time>
      </trkpt>
      <trkpt lat="50.50328" lon="3.38336">
        <ele>22</ele>
        <time>2019-04-11T14:18:57Z</time>
      </trkpt>
      <trkpt lat="50.50321" lon="3.38335">
        <ele>22</ele>
        <time>2019-04-11T14:18:59Z</time>
      </trkpt>
      <trkpt lat="50.50318" lon="3.38337">
        <ele>22</ele>
        <time>2019-04-11T14:19:00Z</time>
      </trkpt>
      <trkpt lat="50.50313" lon="3.3835">
        <ele>22</ele>
        <time>2019-04-11T14:19:03Z</time>
      </trkpt>
      <trkpt lat="50.50311" lon="3.38358">
        <ele>22</ele>
        <time>2019-04-11T14:19:04Z</time>
      </trkpt>
      <trkpt lat="50.50297" lon="3.38409">
        <ele>22</ele>
        <time>2019-04-11T14:19:10Z</time>
      </trkpt>
      <trkpt lat="50.50281" lon="3.38457">
        <ele>21</ele>
        <time>2019-04-11T14:19:16Z</time>
      </trkpt>
      <trkpt lat="50.50271" lon="3.38491">
        <ele>21</ele>
        <time>2019-04-11T14:19:20Z</time>
      </trkpt>
      <trkpt lat="50.50267" lon="3.38507">
        <ele>21</ele>
        <time>2019-04-11T14:19:22Z</time>
      </trkpt>
      <trkpt lat="50.50258" lon="3.3854">
        <ele>21</ele>
        <time>2019-04-11T14:19:26Z</time>
      </trkpt>
      <trkpt lat="50.50236" lon="3.38616">
        <ele>20</ele>
        <time>2019-04-11T14:19:35Z</time>
      </trkpt>
      <trkpt lat="50.5023" lon="3.38632">
        <ele>20</ele>
        <time>2019-04-11T14:19:37Z</time>
      </trkpt>
      <trkpt lat="50.50222" lon="3.38657">
        <ele>20</ele>
        <time>2019-04-11T14:19:40Z</time>
      </trkpt>
      <trkpt lat="50.50218" lon="3.38664">
        <ele>20</ele>
        <time>2019-04-11T14:19:41Z</time>
      </trkpt>
      <trkpt lat="50.50202" lon="3.38667">
        <ele>20</ele>
        <time>2019-04-11T14:19:44Z</time>
      </trkpt>
      <trkpt lat="50.50196" lon="3.38666">
        <ele>20</ele>
        <time>2019-04-11T14:19:45Z</time>
      </trkpt>
      <trkpt lat="50.5019" lon="3.38664">
        <ele>20</ele>
        <time>2019-04-11T14:19:46Z</time>
      </trkpt>
      <trkpt lat="50.50172" lon="3.38658">
        <ele>21</ele>
        <time>2019-04-11T14:19:49Z</time>
      </trkpt>
      <trkpt lat="50.50166" lon="3.38657">
        <ele>21</ele>
        <time>2019-04-11T14:19:50Z</time>
      </trkpt>
      <trkpt lat="50.50153" lon="3.38657">
        <ele>21</ele>
        <time>2019-04-11T14:19:52Z</time>
      </trkpt>
      <trkpt lat="50.50142" lon="3.3866">
        <ele>21</ele>
        <time>2019-04-11T14:19:54Z</time>
      </trkpt>
      <trkpt lat="50.50101" lon="3.38678">
        <ele>20</ele>
        <time>2019-04-11T14:20:02Z</time>
      </trkpt>
      <trkpt lat="50.5006" lon="3.38696">
        <ele>20</ele>
        <time>2019-04-11T14:20:09Z</time>
      </trkpt>
      <trkpt lat="50.50017" lon="3.38716">
        <ele>20</ele>
        <time>2019-04-11T14:20:17Z</time>
      </trkpt>
      <trkpt lat="50.49981" lon="3.3873">
        <ele>21</ele>
        <time>2019-04-11T14:20:24Z</time>
      </trkpt>
      <trkpt lat="50.49976" lon="3.38731">
        <ele>21</ele>
        <time>2019-04-11T14:20:25Z</time>
      </trkpt>
      <trkpt lat="50.49938" lon="3.38742">
        <ele>21</ele>
        <time>2019-04-11T14:20:33Z</time>
      </trkpt>
      <trkpt lat="50.49901" lon="3.38752">
        <ele>21</ele>
        <time>2019-04-11T14:20:41Z</time>
      </trkpt>
      <trkpt lat="50.4987" lon="3.38754">
        <ele>21</ele>
        <time>2019-04-11T14:20:48Z</time>
      </trkpt>
      <trkpt lat="50.49857" lon="3.38754">
        <ele>22</ele>
        <time>2019-04-11T14:20:51Z</time>
      </trkpt>
      <trkpt lat="50.49841" lon="3.38753">
        <ele>22</ele>
        <time>2019-04-11T14:20:55Z</time>
      </trkpt>
      <trkpt lat="50.49814" lon="3.3876">
        <ele>22</ele>
        <time>2019-04-11T14:21:02Z</time>
      </trkpt>
      <trkpt lat="50.49789" lon="3.38771">
        <ele>22</ele>
        <time>2019-04-11T14:21:08Z</time>
      </trkpt>
      <trkpt lat="50.49776" lon="3.38779">
        <ele>22</ele>
        <time>2019-04-11T14:21:13Z</time>
      </trkpt>
      <trkpt lat="50.4976" lon="3.38789">
        <ele>21</ele>
        <time>2019-04-11T14:21:20Z</time>
      </trkpt>
      <trkpt lat="50.49741" lon="3.38801">
        <ele>22</ele>
        <time>2019-04-11T14:21:25Z</time>
      </trkpt>
      <trkpt lat="50.49717" lon="3.38816">
        <ele>21</ele>
        <time>2019-04-11T14:21:31Z</time>
      </trkpt>
      <trkpt lat="50.49674" lon="3.38843">
        <ele>21</ele>
        <time>2019-04-11T14:21:40Z</time>
      </trkpt>
      <trkpt lat="50.49634" lon="3.38869">
        <ele>20</ele>
        <time>2019-04-11T14:21:48Z</time>
      </trkpt>
      <trkpt lat="50.49603" lon="3.38889">
        <ele>20</ele>
        <time>2019-04-11T14:21:54Z</time>
      </trkpt>
      <trkpt lat="50.49598" lon="3.38889">
        <ele>20</ele>
        <time>2019-04-11T14:21:55Z</time>
      </trkpt>
      <trkpt lat="50.49592" lon="3.38889">
        <ele>20</ele>
        <time>2019-04-11T14:21:56Z</time>
      </trkpt>
      <trkpt lat="50.4955" lon="3.38886">
        <ele>19</ele>
        <time>2019-04-11T14:22:03Z</time>
      </trkpt>
      <trkpt lat="50.49543" lon="3.38888">
        <ele>18</ele>
        <time>2019-04-11T14:22:04Z</time>
      </trkpt>
      <trkpt lat="50.49524" lon="3.38899">
        <ele>18</ele>
        <time>2019-04-11T14:22:07Z</time>
      </trkpt>
      <trkpt lat="50.49511" lon="3.3892">
        <ele>18</ele>
        <time>2019-04-11T14:22:10Z</time>
      </trkpt>
      <trkpt lat="50.49508" lon="3.38928">
        <ele>18</ele>
        <time>2019-04-11T14:22:11Z</time>
      </trkpt>
      <trkpt lat="50.49485" lon="3.38981">
        <ele>19</ele>
        <time>2019-04-11T14:22:18Z</time>
      </trkpt>
      <trkpt lat="50.49456" lon="3.39044">
        <ele>19</ele>
        <time>2019-04-11T14:22:27Z</time>
      </trkpt>
      <trkpt lat="50.49431" lon="3.39098">
        <ele>18</ele>
        <time>2019-04-11T14:22:35Z</time>
      </trkpt>
      <trkpt lat="50.49423" lon="3.3911">
        <ele>18</ele>
        <time>2019-04-11T14:22:37Z</time>
      </trkpt>
      <trkpt lat="50.49408" lon="3.39125">
        <ele>18</ele>
        <time>2019-04-11T14:22:40Z</time>
      </trkpt>
      <trkpt lat="50.49358" lon="3.39162">
        <ele>18</ele>
        <time>2019-04-11T14:22:50Z</time>
      </trkpt>
      <trkpt lat="50.49315" lon="3.39193">
        <ele>19</ele>
        <time>2019-04-11T14:22:59Z</time>
      </trkpt>
      <trkpt lat="50.49296" lon="3.39207">
        <ele>20</ele>
        <time>2019-04-11T14:23:03Z</time>
      </trkpt>
      <trkpt lat="50.49273" lon="3.3923">
        <ele>20</ele>
        <time>2019-04-11T14:23:08Z</time>
      </trkpt>
      <trkpt lat="50.49251" lon="3.39261">
        <ele>20</ele>
        <time>2019-04-11T14:23:14Z</time>
      </trkpt>
      <trkpt lat="50.4923" lon="3.39292">
        <ele>20</ele>
        <time>2019-04-11T14:23:20Z</time>
      </trkpt>
      <trkpt lat="50.49221" lon="3.39309">
        <ele>21</ele>
        <time>2019-04-11T14:23:24Z</time>
      </trkpt>
      <trkpt lat="50.49219" lon="3.39312">
        <ele>21</ele>
        <time>2019-04-11T14:23:25Z</time>
      </trkpt>
      <trkpt lat="50.49206" lon="3.39336">
        <ele>20</ele>
        <time>2019-04-11T14:23:30Z</time>
      </trkpt>
      <trkpt lat="50.4918" lon="3.39394">
        <ele>20</ele>
        <time>2019-04-11T14:23:39Z</time>
      </trkpt>
      <trkpt lat="50.49166" lon="3.39441">
        <ele>20</ele>
        <time>2019-04-11T14:23:46Z</time>
      </trkpt>
      <trkpt lat="50.4916" lon="3.39487">
        <ele>19</ele>
        <time>2019-04-11T14:23:52Z</time>
      </trkpt>
      <trkpt lat="50.49155" lon="3.39556">
        <ele>19</ele>
        <time>2019-04-11T14:24:01Z</time>
      </trkpt>
      <trkpt lat="50.49148" lon="3.39615">
        <ele>19</ele>
        <time>2019-04-11T14:24:09Z</time>
      </trkpt>
      <trkpt lat="50.49139" lon="3.39649">
        <ele>19</ele>
        <time>2019-04-11T14:24:14Z</time>
      </trkpt>
      <trkpt lat="50.49136" lon="3.39654">
        <ele>19</ele>
        <time>2019-04-11T14:24:15Z</time>
      </trkpt>
      <trkpt lat="50.49125" lon="3.39668">
        <ele>19</ele>
        <time>2019-04-11T14:24:18Z</time>
      </trkpt>
      <trkpt lat="50.49121" lon="3.39672">
        <ele>19</ele>
        <time>2019-04-11T14:24:19Z</time>
      </trkpt>
      <trkpt lat="50.49116" lon="3.39675">
        <ele>19</ele>
        <time>2019-04-11T14:24:20Z</time>
      </trkpt>
      <trkpt lat="50.49111" lon="3.39677">
        <ele>18</ele>
        <time>2019-04-11T14:24:21Z</time>
      </trkpt>
      <trkpt lat="50.4909" lon="3.39683">
        <ele>18</ele>
        <time>2019-04-11T14:24:25Z</time>
      </trkpt>
      <trkpt lat="50.49044" lon="3.39688">
        <ele>18</ele>
        <time>2019-04-11T14:24:33Z</time>
      </trkpt>
      <trkpt lat="50.49008" lon="3.39692">
        <ele>18</ele>
        <time>2019-04-11T14:24:40Z</time>
      </trkpt>
      <trkpt lat="50.4897" lon="3.39698">
        <ele>18</ele>
        <time>2019-04-11T14:24:48Z</time>
      </trkpt>
      <trkpt lat="50.4894" lon="3.39702">
        <ele>18</ele>
        <time>2019-04-11T14:24:54Z</time>
      </trkpt>
      <trkpt lat="50.48912" lon="3.39716">
        <ele>18</ele>
        <time>2019-04-11T14:25:00Z</time>
      </trkpt>
      <trkpt lat="50.48882" lon="3.3974">
        <ele>18</ele>
        <time>2019-04-11T14:25:07Z</time>
      </trkpt>
      <trkpt lat="50.48878" lon="3.39743">
        <ele>18</ele>
        <time>2019-04-11T14:25:08Z</time>
      </trkpt>
      <trkpt lat="50.48857" lon="3.39762">
        <ele>18</ele>
        <time>2019-04-11T14:25:13Z</time>
      </trkpt>
      <trkpt lat="50.48833" lon="3.39789">
        <ele>18</ele>
        <time>2019-04-11T14:25:19Z</time>
      </trkpt>
      <trkpt lat="50.48829" lon="3.39795">
        <ele>18</ele>
        <time>2019-04-11T14:25:20Z</time>
      </trkpt>
      <trkpt lat="50.4882" lon="3.39811">
        <ele>19</ele>
        <time>2019-04-11T14:25:23Z</time>
      </trkpt>
      <trkpt lat="50.48814" lon="3.39829">
        <ele>19</ele>
        <time>2019-04-11T14:25:26Z</time>
      </trkpt>
      <trkpt lat="50.48801" lon="3.3987">
        <ele>19</ele>
        <time>2019-04-11T14:25:32Z</time>
      </trkpt>
      <trkpt lat="50.48785" lon="3.39926">
        <ele>19</ele>
        <time>2019-04-11T14:25:40Z</time>
      </trkpt>
      <trkpt lat="50.48771" lon="3.39997">
        <ele>18</ele>
        <time>2019-04-11T14:25:50Z</time>
      </trkpt>
      <trkpt lat="50.48757" lon="3.4005">
        <ele>18</ele>
        <time>2019-04-11T14:25:58Z</time>
      </trkpt>
      <trkpt lat="50.48748" lon="3.40076">
        <ele>17</ele>
        <time>2019-04-11T14:26:02Z</time>
      </trkpt>
      <trkpt lat="50.48744" lon="3.40089">
        <ele>17</ele>
        <time>2019-04-11T14:26:04Z</time>
      </trkpt>
      <trkpt lat="50.48742" lon="3.40095">
        <ele>18</ele>
        <time>2019-04-11T14:26:05Z</time>
      </trkpt>
      <trkpt lat="50.48736" lon="3.40113">
        <ele>18</ele>
        <time>2019-04-11T14:26:08Z</time>
      </trkpt>
      <trkpt lat="50.48725" lon="3.40141">
        <ele>18</ele>
        <time>2019-04-11T14:26:13Z</time>
      </trkpt>
      <trkpt lat="50.48706" lon="3.40194">
        <ele>18</ele>
        <time>2019-04-11T14:26:21Z</time>
      </trkpt>
      <trkpt lat="50.48702" lon="3.40207">
        <ele>17</ele>
        <time>2019-04-11T14:26:23Z</time>
      </trkpt>
      <trkpt lat="50.48688" lon="3.40248">
        <ele>18</ele>
        <time>2019-04-11T14:26:29Z</time>
      </trkpt>
      <trkpt lat="50.48673" lon="3.4029">
        <ele>18</ele>
        <time>2019-04-11T14:26:36Z</time>
      </trkpt>
      <trkpt lat="50.48659" lon="3.4032">
        <ele>19</ele>
        <time>2019-04-11T14:26:41Z</time>
      </trkpt>
      <trkpt lat="50.48649" lon="3.40338">
        <ele>18</ele>
        <time>2019-04-11T14:26:44Z</time>
      </trkpt>
      <trkpt lat="50.4864" lon="3.40356">
        <ele>18</ele>
        <time>2019-04-11T14:26:47Z</time>
      </trkpt>
      <trkpt lat="50.48625" lon="3.40385">
        <ele>18</ele>
        <time>2019-04-11T14:26:52Z</time>
      </trkpt>
      <trkpt lat="50.48604" lon="3.40423">
        <ele>17</ele>
        <time>2019-04-11T14:26:59Z</time>
      </trkpt>
      <trkpt lat="50.48587" lon="3.40436">
        <ele>18</ele>
        <time>2019-04-11T14:27:03Z</time>
      </trkpt>
      <trkpt lat="50.48582" lon="3.40438">
        <ele>18</ele>
        <time>2019-04-11T14:27:04Z</time>
      </trkpt>
      <trkpt lat="50.48563" lon="3.40441">
        <ele>17</ele>
        <time>2019-04-11T14:27:08Z</time>
      </trkpt>
      <trkpt lat="50.48554" lon="3.40443">
        <ele>17</ele>
        <time>2019-04-11T14:27:10Z</time>
      </trkpt>
      <trkpt lat="50.48545" lon="3.40447">
        <ele>18</ele>
        <time>2019-04-11T14:27:12Z</time>
      </trkpt>
      <trkpt lat="50.48533" lon="3.40461">
        <ele>18</ele>
        <time>2019-04-11T14:27:15Z</time>
      </trkpt>
      <trkpt lat="50.48524" lon="3.40481">
        <ele>18</ele>
        <time>2019-04-11T14:27:18Z</time>
      </trkpt>
      <trkpt lat="50.48522" lon="3.40489">
        <ele>18</ele>
        <time>2019-04-11T14:27:19Z</time>
      </trkpt>
      <trkpt lat="50.48505" lon="3.4055">
        <ele>18</ele>
        <time>2019-04-11T14:27:28Z</time>
      </trkpt>
      <trkpt lat="50.48492" lon="3.40609">
        <ele>18</ele>
        <time>2019-04-11T14:27:36Z</time>
      </trkpt>
      <trkpt lat="50.48485" lon="3.40653">
        <ele>17</ele>
        <time>2019-04-11T14:27:42Z</time>
      </trkpt>
      <trkpt lat="50.48476" lon="3.40707">
        <ele>16</ele>
        <time>2019-04-11T14:27:49Z</time>
      </trkpt>
      <trkpt lat="50.48473" lon="3.40723">
        <ele>16</ele>
        <time>2019-04-11T14:27:51Z</time>
      </trkpt>
      <trkpt lat="50.4846" lon="3.4078">
        <ele>16</ele>
        <time>2019-04-11T14:27:59Z</time>
      </trkpt>
      <trkpt lat="50.48446" lon="3.40829">
        <ele>16</ele>
        <time>2019-04-11T14:28:06Z</time>
      </trkpt>
      <trkpt lat="50.48435" lon="3.40873">
        <ele>16</ele>
        <time>2019-04-11T14:28:12Z</time>
      </trkpt>
      <trkpt lat="50.4842" lon="3.40929">
        <ele>17</ele>
        <time>2019-04-11T14:28:20Z</time>
      </trkpt>
      <trkpt lat="50.48417" lon="3.40943">
        <ele>17</ele>
        <time>2019-04-11T14:28:22Z</time>
      </trkpt>
      <trkpt lat="50.48412" lon="3.40964">
        <ele>16</ele>
        <time>2019-04-11T14:28:25Z</time>
      </trkpt>
      <trkpt lat="50.48404" lon="3.41007">
        <ele>17</ele>
        <time>2019-04-11T14:28:31Z</time>
      </trkpt>
      <trkpt lat="50.48394" lon="3.41057">
        <ele>18</ele>
        <time>2019-04-11T14:28:38Z</time>
      </trkpt>
      <trkpt lat="50.48392" lon="3.41071">
        <ele>18</ele>
        <time>2019-04-11T14:28:40Z</time>
      </trkpt>
      <trkpt lat="50.48382" lon="3.41129">
        <ele>18</ele>
        <time>2019-04-11T14:28:48Z</time>
      </trkpt>
      <trkpt lat="50.48373" lon="3.41202">
        <ele>17</ele>
        <time>2019-04-11T14:28:58Z</time>
      </trkpt>
      <trkpt lat="50.48372" lon="3.41217">
        <ele>17</ele>
        <time>2019-04-11T14:29:00Z</time>
      </trkpt>
      <trkpt lat="50.48369" lon="3.41248">
        <ele>17</ele>
        <time>2019-04-11T14:29:05Z</time>
      </trkpt>
      <trkpt lat="50.48361" lon="3.41266">
        <ele>17</ele>
        <time>2019-04-11T14:29:10Z</time>
      </trkpt>
      <trkpt lat="50.48352" lon="3.4126">
        <ele>17</ele>
        <time>2019-04-11T14:29:13Z</time>
      </trkpt>
      <trkpt lat="50.4832" lon="3.41235">
        <ele>17</ele>
        <time>2019-04-11T14:29:21Z</time>
      </trkpt>
      <trkpt lat="50.48288" lon="3.41209">
        <ele>17</ele>
        <time>2019-04-11T14:29:29Z</time>
      </trkpt>
      <trkpt lat="50.48243" lon="3.41171">
        <ele>17</ele>
        <time>2019-04-11T14:29:39Z</time>
      </trkpt>
      <trkpt lat="50.48216" lon="3.41155">
        <ele>16</ele>
        <time>2019-04-11T14:29:45Z</time>
      </trkpt>
      <trkpt lat="50.48196" lon="3.41147">
        <ele>15</ele>
        <time>2019-04-11T14:29:49Z</time>
      </trkpt>
      <trkpt lat="50.48176" lon="3.41139">
        <ele>15</ele>
        <time>2019-04-11T14:29:53Z</time>
      </trkpt>
      <trkpt lat="50.4816" lon="3.41133">
        <ele>15</ele>
        <time>2019-04-11T14:29:56Z</time>
      </trkpt>
      <trkpt lat="50.4815" lon="3.41126">
        <ele>15</ele>
        <time>2019-04-11T14:29:58Z</time>
      </trkpt>
      <trkpt lat="50.48136" lon="3.41115">
        <ele>14</ele>
        <time>2019-04-11T14:30:01Z</time>
      </trkpt>
      <trkpt lat="50.48117" lon="3.41099">
        <ele>15</ele>
        <time>2019-04-11T14:30:05Z</time>
      </trkpt>
      <trkpt lat="50.48078" lon="3.41067">
        <ele>14</ele>
        <time>2019-04-11T14:30:13Z</time>
      </trkpt>
      <trkpt lat="50.4804" lon="3.41034">
        <ele>15</ele>
        <time>2019-04-11T14:30:21Z</time>
      </trkpt>
      <trkpt lat="50.47998" lon="3.41">
        <ele>14</ele>
        <time>2019-04-11T14:30:30Z</time>
      </trkpt>
      <trkpt lat="50.47965" lon="3.40971">
        <ele>14</ele>
        <time>2019-04-11T14:30:38Z</time>
      </trkpt>
      <trkpt lat="50.47961" lon="3.40968">
        <ele>14</ele>
        <time>2019-04-11T14:30:39Z</time>
      </trkpt>
      <trkpt lat="50.47949" lon="3.40972">
        <ele>14</ele>
        <time>2019-04-11T14:30:42Z</time>
      </trkpt>
      <trkpt lat="50.4794" lon="3.4098">
        <ele>14</ele>
        <time>2019-04-11T14:30:44Z</time>
      </trkpt>
      <trkpt lat="50.47928" lon="3.40993">
        <ele>14</ele>
        <time>2019-04-11T14:30:47Z</time>
      </trkpt>
      <trkpt lat="50.4789" lon="3.41036">
        <ele>14</ele>
        <time>2019-04-11T14:30:56Z</time>
      </trkpt>
      <trkpt lat="50.4785" lon="3.41081">
        <ele>14</ele>
        <time>2019-04-11T14:31:06Z</time>
      </trkpt>
      <trkpt lat="50.47827" lon="3.41109">
        <ele>15</ele>
        <time>2019-04-11T14:31:12Z</time>
      </trkpt>
      <trkpt lat="50.47797" lon="3.41153">
        <ele>14</ele>
        <time>2019-04-11T14:31:20Z</time>
      </trkpt>
      <trkpt lat="50.47794" lon="3.4116">
        <ele>14</ele>
        <time>2019-04-11T14:31:21Z</time>
      </trkpt>
      <trkpt lat="50.47786" lon="3.4118">
        <ele>14</ele>
        <time>2019-04-11T14:31:24Z</time>
      </trkpt>
      <trkpt lat="50.47785" lon="3.41188">
        <ele>14</ele>
        <time>2019-04-11T14:31:25Z</time>
      </trkpt>
      <trkpt lat="50.47781" lon="3.41232">
        <ele>15</ele>
        <time>2019-04-11T14:31:31Z</time>
      </trkpt>
      <trkpt lat="50.4778" lon="3.41244">
        <ele>16</ele>
        <time>2019-04-11T14:31:33Z</time>
      </trkpt>
      <trkpt lat="50.47777" lon="3.41263">
        <ele>16</ele>
        <time>2019-04-11T14:31:36Z</time>
      </trkpt>
      <trkpt lat="50.47771" lon="3.41305">
        <ele>17</ele>
        <time>2019-04-11T14:31:43Z</time>
      </trkpt>
      <trkpt lat="50.47769" lon="3.41311">
        <ele>17</ele>
        <time>2019-04-11T14:31:44Z</time>
      </trkpt>
      <trkpt lat="50.47758" lon="3.41322">
        <ele>17</ele>
        <time>2019-04-11T14:31:47Z</time>
      </trkpt>
      <trkpt lat="50.47749" lon="3.41328">
        <ele>16</ele>
        <time>2019-04-11T14:31:49Z</time>
      </trkpt>
      <trkpt lat="50.47736" lon="3.41335">
        <ele>16</ele>
        <time>2019-04-11T14:31:52Z</time>
      </trkpt>
      <trkpt lat="50.47727" lon="3.41339">
        <ele>16</ele>
        <time>2019-04-11T14:31:54Z</time>
      </trkpt>
      <trkpt lat="50.47695" lon="3.41353">
        <ele>16</ele>
        <time>2019-04-11T14:32:01Z</time>
      </trkpt>
      <trkpt lat="50.47685" lon="3.41355">
        <ele>16</ele>
        <time>2019-04-11T14:32:03Z</time>
      </trkpt>
      <trkpt lat="50.47665" lon="3.41354">
        <ele>16</ele>
        <time>2019-04-11T14:32:07Z</time>
      </trkpt>
      <trkpt lat="50.4766" lon="3.41354">
        <ele>17</ele>
        <time>2019-04-11T14:32:08Z</time>
      </trkpt>
      <trkpt lat="50.47625" lon="3.41349">
        <ele>17</ele>
        <time>2019-04-11T14:32:15Z</time>
      </trkpt>
      <trkpt lat="50.4758" lon="3.41335">
        <ele>17</ele>
        <time>2019-04-11T14:32:24Z</time>
      </trkpt>
      <trkpt lat="50.47548" lon="3.41317">
        <ele>17</ele>
        <time>2019-04-11T14:32:31Z</time>
      </trkpt>
      <trkpt lat="50.47515" lon="3.41296">
        <ele>16</ele>
        <time>2019-04-11T14:32:39Z</time>
      </trkpt>
      <trkpt lat="50.47485" lon="3.41275">
        <ele>16</ele>
        <time>2019-04-11T14:32:46Z</time>
      </trkpt>
      <trkpt lat="50.47476" lon="3.4127">
        <ele>16</ele>
        <time>2019-04-11T14:32:48Z</time>
      </trkpt>
      <trkpt lat="50.47453" lon="3.41259">
        <ele>15</ele>
        <time>2019-04-11T14:32:53Z</time>
      </trkpt>
      <trkpt lat="50.47428" lon="3.41256">
        <ele>15</ele>
        <time>2019-04-11T14:32:58Z</time>
      </trkpt>
      <trkpt lat="50.47422" lon="3.41257">
        <ele>15</ele>
        <time>2019-04-11T14:32:59Z</time>
      </trkpt>
      <trkpt lat="50.47397" lon="3.41264">
        <ele>15</ele>
        <time>2019-04-11T14:33:04Z</time>
      </trkpt>
      <trkpt lat="50.47371" lon="3.41269">
        <ele>15</ele>
        <time>2019-04-11T14:33:09Z</time>
      </trkpt>
      <trkpt lat="50.47363" lon="3.41268">
        <ele>15</ele>
        <time>2019-04-11T14:33:11Z</time>
      </trkpt>
      <trkpt lat="50.47357" lon="3.41267">
        <ele>15</ele>
        <time>2019-04-11T14:33:13Z</time>
      </trkpt>
      <trkpt lat="50.47349" lon="3.41264">
        <ele>14</ele>
        <time>2019-04-11T14:33:16Z</time>
      </trkpt>
      <trkpt lat="50.47338" lon="3.41258">
        <ele>14</ele>
        <time>2019-04-11T14:33:19Z</time>
      </trkpt>
      <trkpt lat="50.47333" lon="3.41259">
        <ele>14</ele>
        <time>2019-04-11T14:33:20Z</time>
      </trkpt>
      <trkpt lat="50.47312" lon="3.41267">
        <ele>14</ele>
        <time>2019-04-11T14:33:25Z</time>
      </trkpt>
      <trkpt lat="50.47302" lon="3.41267">
        <ele>14</ele>
        <time>2019-04-11T14:33:27Z</time>
      </trkpt>
      <trkpt lat="50.47297" lon="3.41267">
        <ele>14</ele>
        <time>2019-04-11T14:33:28Z</time>
      </trkpt>
      <trkpt lat="50.47287" lon="3.41265">
        <ele>14</ele>
        <time>2019-04-11T14:33:30Z</time>
      </trkpt>
      <trkpt lat="50.47254" lon="3.41265">
        <ele>14</ele>
        <time>2019-04-11T14:33:37Z</time>
      </trkpt>
      <trkpt lat="50.47224" lon="3.41276">
        <ele>14</ele>
        <time>2019-04-11T14:33:43Z</time>
      </trkpt>
      <trkpt lat="50.47192" lon="3.41302">
        <ele>14</ele>
        <time>2019-04-11T14:33:50Z</time>
      </trkpt>
      <trkpt lat="50.47167" lon="3.41324">
        <ele>15</ele>
        <time>2019-04-11T14:33:56Z</time>
      </trkpt>
      <trkpt lat="50.47154" lon="3.41335">
        <ele>15</ele>
        <time>2019-04-11T14:33:59Z</time>
      </trkpt>
      <trkpt lat="50.47114" lon="3.41367">
        <ele>15</ele>
        <time>2019-04-11T14:34:08Z</time>
      </trkpt>
      <trkpt lat="50.4708" lon="3.41388">
        <ele>14</ele>
        <time>2019-04-11T14:34:15Z</time>
      </trkpt>
      <trkpt lat="50.47037" lon="3.41415">
        <ele>15</ele>
        <time>2019-04-11T14:34:24Z</time>
      </trkpt>
      <trkpt lat="50.46996" lon="3.41442">
        <ele>15</ele>
        <time>2019-04-11T14:34:33Z</time>
      </trkpt>
      <trkpt lat="50.46953" lon="3.41471">
        <ele>15</ele>
        <time>2019-04-11T14:34:42Z</time>
      </trkpt>
      <trkpt lat="50.46919" lon="3.41485">
        <ele>15</ele>
        <time>2019-04-11T14:34:49Z</time>
      </trkpt>
      <trkpt lat="50.46907" lon="3.41489">
        <ele>16</ele>
        <time>2019-04-11T14:34:52Z</time>
      </trkpt>
      <trkpt lat="50.46902" lon="3.415">
        <ele>16</ele>
        <time>2019-04-11T14:34:54Z</time>
      </trkpt>
      <trkpt lat="50.46902" lon="3.41507">
        <ele>16</ele>
        <time>2019-04-11T14:34:55Z</time>
      </trkpt>
      <trkpt lat="50.46903" lon="3.41529">
        <ele>16</ele>
        <time>2019-04-11T14:34:58Z</time>
      </trkpt>
      <trkpt lat="50.46908" lon="3.41575">
        <ele>16</ele>
        <time>2019-04-11T14:35:04Z</time>
      </trkpt>
      <trkpt lat="50.46916" lon="3.41596">
        <ele>15</ele>
        <time>2019-04-11T14:35:07Z</time>
      </trkpt>
      <trkpt lat="50.46923" lon="3.41609">
        <ele>15</ele>
        <time>2019-04-11T14:35:09Z</time>
      </trkpt>
      <trkpt lat="50.46946" lon="3.41656">
        <ele>16</ele>
        <time>2019-04-11T14:35:17Z</time>
      </trkpt>
      <trkpt lat="50.46966" lon="3.41697">
        <ele>16</ele>
        <time>2019-04-11T14:35:24Z</time>
      </trkpt>
      <trkpt lat="50.46979" lon="3.41727">
        <ele>16</ele>
        <time>2019-04-11T14:35:29Z</time>
      </trkpt>
      <trkpt lat="50.46983" lon="3.4174">
        <ele>16</ele>
        <time>2019-04-11T14:35:31Z</time>
      </trkpt>
      <trkpt lat="50.46998" lon="3.41782">
        <ele>16</ele>
        <time>2019-04-11T14:35:38Z</time>
      </trkpt>
      <trkpt lat="50.47016" lon="3.41811">
        <ele>17</ele>
        <time>2019-04-11T14:35:44Z</time>
      </trkpt>
      <trkpt lat="50.47022" lon="3.4182">
        <ele>17</ele>
        <time>2019-04-11T14:35:46Z</time>
      </trkpt>
      <trkpt lat="50.47047" lon="3.41861">
        <ele>17</ele>
        <time>2019-04-11T14:35:55Z</time>
      </trkpt>
      <trkpt lat="50.47066" lon="3.41901">
        <ele>16</ele>
        <time>2019-04-11T14:36:02Z</time>
      </trkpt>
      <trkpt lat="50.47087" lon="3.41944">
        <ele>16</ele>
        <time>2019-04-11T14:36:10Z</time>
      </trkpt>
      <trkpt lat="50.47099" lon="3.41967">
        <ele>16</ele>
        <time>2019-04-11T14:36:14Z</time>
      </trkpt>
      <trkpt lat="50.47113" lon="3.41992">
        <ele>16</ele>
        <time>2019-04-11T14:36:18Z</time>
      </trkpt>
      <trkpt lat="50.47116" lon="3.41999">
        <ele>16</ele>
        <time>2019-04-11T14:36:19Z</time>
      </trkpt>
      <trkpt lat="50.47121" lon="3.42023">
        <ele>16</ele>
        <time>2019-04-11T14:36:22Z</time>
      </trkpt>
      <trkpt lat="50.47119" lon="3.42054">
        <ele>16</ele>
        <time>2019-04-11T14:36:26Z</time>
      </trkpt>
      <trkpt lat="50.47113" lon="3.42076">
        <ele>16</ele>
        <time>2019-04-11T14:36:29Z</time>
      </trkpt>
      <trkpt lat="50.47107" lon="3.42097">
        <ele>16</ele>
        <time>2019-04-11T14:36:32Z</time>
      </trkpt>
      <trkpt lat="50.4709" lon="3.42161">
        <ele>16</ele>
        <time>2019-04-11T14:36:41Z</time>
      </trkpt>
      <trkpt lat="50.47084" lon="3.42189">
        <ele>16</ele>
        <time>2019-04-11T14:36:45Z</time>
      </trkpt>
      <trkpt lat="50.47083" lon="3.42211">
        <ele>16</ele>
        <time>2019-04-11T14:36:48Z</time>
      </trkpt>
      <trkpt lat="50.47093" lon="3.42238">
        <ele>16</ele>
        <time>2019-04-11T14:36:52Z</time>
      </trkpt>
      <trkpt lat="50.471" lon="3.42249">
        <ele>16</ele>
        <time>2019-04-11T14:36:54Z</time>
      </trkpt>
      <trkpt lat="50.47114" lon="3.42266">
        <ele>16</ele>
        <time>2019-04-11T14:36:58Z</time>
      </trkpt>
      <trkpt lat="50.47142" lon="3.42293">
        <ele>16</ele>
        <time>2019-04-11T14:37:05Z</time>
      </trkpt>
      <trkpt lat="50.47154" lon="3.42305">
        <ele>16</ele>
        <time>2019-04-11T14:37:08Z</time>
      </trkpt>
      <trkpt lat="50.47169" lon="3.42324">
        <ele>16</ele>
        <time>2019-04-11T14:37:12Z</time>
      </trkpt>
      <trkpt lat="50.47197" lon="3.42366">
        <ele>16</ele>
        <time>2019-04-11T14:37:20Z</time>
      </trkpt>
      <trkpt lat="50.47229" lon="3.42416">
        <ele>16</ele>
        <time>2019-04-11T14:37:29Z</time>
      </trkpt>
      <trkpt lat="50.47259" lon="3.42464">
        <ele>15</ele>
        <time>2019-04-11T14:37:37Z</time>
      </trkpt>
      <trkpt lat="50.4727" lon="3.42481">
        <ele>15</ele>
        <time>2019-04-11T14:37:40Z</time>
      </trkpt>
      <trkpt lat="50.47282" lon="3.42506">
        <ele>15</ele>
        <time>2019-04-11T14:37:44Z</time>
      </trkpt>
      <trkpt lat="50.47291" lon="3.4253">
        <ele>15</ele>
        <time>2019-04-11T14:37:48Z</time>
      </trkpt>
      <trkpt lat="50.47294" lon="3.42536">
        <ele>14</ele>
        <time>2019-04-11T14:37:49Z</time>
      </trkpt>
      <trkpt lat="50.47303" lon="3.42552">
        <ele>14</ele>
        <time>2019-04-11T14:37:52Z</time>
      </trkpt>
      <trkpt lat="50.47311" lon="3.42561">
        <ele>14</ele>
        <time>2019-04-11T14:37:54Z</time>
      </trkpt>
      <trkpt lat="50.47328" lon="3.42579">
        <ele>14</ele>
        <time>2019-04-11T14:38:00Z</time>
      </trkpt>
      <trkpt lat="50.47334" lon="3.42588">
        <ele>14</ele>
        <time>2019-04-11T14:38:29Z</time>
      </trkpt>
      <trkpt lat="50.47339" lon="3.42596">
        <ele>13</ele>
        <time>2019-04-11T14:38:32Z</time>
      </trkpt>
      <trkpt lat="50.4735" lon="3.42613">
        <ele>12</ele>
        <time>2019-04-11T14:38:36Z</time>
      </trkpt>
      <trkpt lat="50.47358" lon="3.42615">
        <ele>11</ele>
        <time>2019-04-11T14:38:38Z</time>
      </trkpt>
      <trkpt lat="50.47362" lon="3.42615">
        <ele>11</ele>
        <time>2019-04-11T14:38:39Z</time>
      </trkpt>
      <trkpt lat="50.47365" lon="3.42616">
        <ele>10</ele>
        <time>2019-04-11T14:38:40Z</time>
      </trkpt>
      <trkpt lat="50.47368" lon="3.42616">
        <ele>10</ele>
        <time>2019-04-11T14:38:41Z</time>
      </trkpt>
      <trkpt lat="50.47372" lon="3.42618">
        <ele>9</ele>
        <time>2019-04-11T14:38:42Z</time>
      </trkpt>
      <trkpt lat="50.47378" lon="3.4262">
        <ele>8</ele>
        <time>2019-04-11T14:38:44Z</time>
      </trkpt>
      <trkpt lat="50.47381" lon="3.42623">
        <ele>8</ele>
        <time>2019-04-11T14:38:45Z</time>
      </trkpt>
      <trkpt lat="50.47396" lon="3.42633">
        <ele>8</ele>
        <time>2019-04-11T14:38:49Z</time>
      </trkpt>
      <trkpt lat="50.47399" lon="3.42635">
        <ele>9</ele>
        <time>2019-04-11T14:38:50Z</time>
      </trkpt>
      <trkpt lat="50.47413" lon="3.42645">
        <ele>9</ele>
        <time>2019-04-11T14:38:55Z</time>
      </trkpt>
      <trkpt lat="50.47428" lon="3.42654">
        <ele>10</ele>
        <time>2019-04-11T14:38:59Z</time>
      </trkpt>
      <trkpt lat="50.47435" lon="3.4266">
        <ele>10</ele>
        <time>2019-04-11T14:39:01Z</time>
      </trkpt>
      <trkpt lat="50.4744" lon="3.4268">
        <ele>10</ele>
        <time>2019-04-11T14:39:04Z</time>
      </trkpt>
      <trkpt lat="50.47437" lon="3.42708">
        <ele>11</ele>
        <time>2019-04-11T14:39:08Z</time>
      </trkpt>
      <trkpt lat="50.47436" lon="3.42714">
        <ele>11</ele>
        <time>2019-04-11T14:39:09Z</time>
      </trkpt>
      <trkpt lat="50.47427" lon="3.42752">
        <ele>12</ele>
        <time>2019-04-11T14:39:15Z</time>
      </trkpt>
      <trkpt lat="50.47425" lon="3.42765">
        <ele>12</ele>
        <time>2019-04-11T14:39:17Z</time>
      </trkpt>
      <trkpt lat="50.47417" lon="3.42805">
        <ele>13</ele>
        <time>2019-04-11T14:39:23Z</time>
      </trkpt>
      <trkpt lat="50.47415" lon="3.42812">
        <ele>13</ele>
        <time>2019-04-11T14:39:24Z</time>
      </trkpt>
      <trkpt lat="50.47407" lon="3.42872">
        <ele>14</ele>
        <time>2019-04-11T14:39:32Z</time>
      </trkpt>
      <trkpt lat="50.47406" lon="3.42888">
        <ele>14</ele>
        <time>2019-04-11T14:39:34Z</time>
      </trkpt>
      <trkpt lat="50.47403" lon="3.42934">
        <ele>15</ele>
        <time>2019-04-11T14:39:40Z</time>
      </trkpt>
      <trkpt lat="50.47402" lon="3.42958">
        <ele>15</ele>
        <time>2019-04-11T14:39:43Z</time>
      </trkpt>
      <trkpt lat="50.47401" lon="3.43005">
        <ele>16</ele>
        <time>2019-04-11T14:39:49Z</time>
      </trkpt>
      <trkpt lat="50.474" lon="3.43037">
        <ele>16</ele>
        <time>2019-04-11T14:39:53Z</time>
      </trkpt>
      <trkpt lat="50.47399" lon="3.43068">
        <ele>17</ele>
        <time>2019-04-11T14:39:57Z</time>
      </trkpt>
      <trkpt lat="50.47397" lon="3.43127">
        <ele>17</ele>
        <time>2019-04-11T14:40:04Z</time>
      </trkpt>
      <trkpt lat="50.47394" lon="3.43212">
        <ele>16</ele>
        <time>2019-04-11T14:40:14Z</time>
      </trkpt>
      <trkpt lat="50.47394" lon="3.43221">
        <ele>16</ele>
        <time>2019-04-11T14:40:15Z</time>
      </trkpt>
      <trkpt lat="50.47393" lon="3.43246">
        <ele>16</ele>
        <time>2019-04-11T14:40:18Z</time>
      </trkpt>
      <trkpt lat="50.47388" lon="3.43271">
        <ele>16</ele>
        <time>2019-04-11T14:40:21Z</time>
      </trkpt>
      <trkpt lat="50.47377" lon="3.4333">
        <ele>17</ele>
        <time>2019-04-11T14:40:29Z</time>
      </trkpt>
      <trkpt lat="50.47367" lon="3.43388">
        <ele>17</ele>
        <time>2019-04-11T14:40:37Z</time>
      </trkpt>
      <trkpt lat="50.47359" lon="3.43463">
        <ele>17</ele>
        <time>2019-04-11T14:40:47Z</time>
      </trkpt>
      <trkpt lat="50.4735" lon="3.43525">
        <ele>17</ele>
        <time>2019-04-11T14:40:55Z</time>
      </trkpt>
      <trkpt lat="50.47332" lon="3.43578">
        <ele>16</ele>
        <time>2019-04-11T14:41:02Z</time>
      </trkpt>
      <trkpt lat="50.47311" lon="3.43618">
        <ele>16</ele>
        <time>2019-04-11T14:41:08Z</time>
      </trkpt>
      <trkpt lat="50.47307" lon="3.43625">
        <ele>16</ele>
        <time>2019-04-11T14:41:09Z</time>
      </trkpt>
      <trkpt lat="50.47289" lon="3.43648">
        <ele>15</ele>
        <time>2019-04-11T14:41:13Z</time>
      </trkpt>
      <trkpt lat="50.4727" lon="3.43675">
        <ele>15</ele>
        <time>2019-04-11T14:41:18Z</time>
      </trkpt>
      <trkpt lat="50.47256" lon="3.43698">
        <ele>16</ele>
        <time>2019-04-11T14:41:22Z</time>
      </trkpt>
      <trkpt lat="50.47247" lon="3.43717">
        <ele>15</ele>
        <time>2019-04-11T14:41:25Z</time>
      </trkpt>
      <trkpt lat="50.47235" lon="3.43756">
        <ele>15</ele>
        <time>2019-04-11T14:41:31Z</time>
      </trkpt>
      <trkpt lat="50.47216" lon="3.43817">
        <ele>15</ele>
        <time>2019-04-11T14:41:40Z</time>
      </trkpt>
      <trkpt lat="50.47194" lon="3.43856">
        <ele>16</ele>
        <time>2019-04-11T14:41:47Z</time>
      </trkpt>
      <trkpt lat="50.47161" lon="3.43893">
        <ele>16</ele>
        <time>2019-04-11T14:41:55Z</time>
      </trkpt>
      <trkpt lat="50.47148" lon="3.43903">
        <ele>16</ele>
        <time>2019-04-11T14:41:58Z</time>
      </trkpt>
      <trkpt lat="50.47132" lon="3.4391">
        <ele>16</ele>
        <time>2019-04-11T14:42:01Z</time>
      </trkpt>
      <trkpt lat="50.47076" lon="3.4394">
        <ele>16</ele>
        <time>2019-04-11T14:42:12Z</time>
      </trkpt>
      <trkpt lat="50.47054" lon="3.4396">
        <ele>16</ele>
        <time>2019-04-11T14:42:17Z</time>
      </trkpt>
      <trkpt lat="50.47042" lon="3.43974">
        <ele>15</ele>
        <time>2019-04-11T14:42:20Z</time>
      </trkpt>
      <trkpt lat="50.4702" lon="3.44008">
        <ele>16</ele>
        <time>2019-04-11T14:42:26Z</time>
      </trkpt>
      <trkpt lat="50.47" lon="3.44054">
        <ele>16</ele>
        <time>2019-04-11T14:42:33Z</time>
      </trkpt>
      <trkpt lat="50.46994" lon="3.44074">
        <ele>16</ele>
        <time>2019-04-11T14:42:36Z</time>
      </trkpt>
      <trkpt lat="50.46987" lon="3.44102">
        <ele>17</ele>
        <time>2019-04-11T14:42:40Z</time>
      </trkpt>
      <trkpt lat="50.46965" lon="3.44173">
        <ele>17</ele>
        <time>2019-04-11T14:42:50Z</time>
      </trkpt>
      <trkpt lat="50.46945" lon="3.44208">
        <ele>18</ele>
        <time>2019-04-11T14:42:56Z</time>
      </trkpt>
      <trkpt lat="50.46907" lon="3.4426">
        <ele>18</ele>
        <time>2019-04-11T14:43:06Z</time>
      </trkpt>
      <trkpt lat="50.46894" lon="3.44286">
        <ele>19</ele>
        <time>2019-04-11T14:43:10Z</time>
      </trkpt>
      <trkpt lat="50.46886" lon="3.44309">
        <ele>19</ele>
        <time>2019-04-11T14:43:13Z</time>
      </trkpt>
      <trkpt lat="50.46865" lon="3.44375">
        <ele>19</ele>
        <time>2019-04-11T14:43:21Z</time>
      </trkpt>
      <trkpt lat="50.4684" lon="3.44451">
        <ele>18</ele>
        <time>2019-04-11T14:43:30Z</time>
      </trkpt>
      <trkpt lat="50.46831" lon="3.44484">
        <ele>17</ele>
        <time>2019-04-11T14:43:34Z</time>
      </trkpt>
      <trkpt lat="50.46829" lon="3.44503">
        <ele>17</ele>
        <time>2019-04-11T14:43:36Z</time>
      </trkpt>
      <trkpt lat="50.46827" lon="3.44558">
        <ele>17</ele>
        <time>2019-04-11T14:43:42Z</time>
      </trkpt>
      <trkpt lat="50.46826" lon="3.4462">
        <ele>17</ele>
        <time>2019-04-11T14:43:50Z</time>
      </trkpt>
      <trkpt lat="50.46826" lon="3.44628">
        <ele>16</ele>
        <time>2019-04-11T14:43:51Z</time>
      </trkpt>
      <trkpt lat="50.4682" lon="3.44665">
        <ele>16</ele>
        <time>2019-04-11T14:43:56Z</time>
      </trkpt>
      <trkpt lat="50.46812" lon="3.44721">
        <ele>16</ele>
        <time>2019-04-11T14:44:03Z</time>
      </trkpt>
      <trkpt lat="50.46801" lon="3.44786">
        <ele>17</ele>
        <time>2019-04-11T14:44:12Z</time>
      </trkpt>
      <trkpt lat="50.46794" lon="3.44835">
        <ele>16</ele>
        <time>2019-04-11T14:44:19Z</time>
      </trkpt>
      <trkpt lat="50.46787" lon="3.44883">
        <ele>16</ele>
        <time>2019-04-11T14:44:26Z</time>
      </trkpt>
      <trkpt lat="50.46781" lon="3.44917">
        <ele>15</ele>
        <time>2019-04-11T14:44:31Z</time>
      </trkpt>
      <trkpt lat="50.46777" lon="3.44939">
        <ele>16</ele>
        <time>2019-04-11T14:44:34Z</time>
      </trkpt>
      <trkpt lat="50.46771" lon="3.4498">
        <ele>15</ele>
        <time>2019-04-11T14:44:40Z</time>
      </trkpt>
      <trkpt lat="50.46768" lon="3.44992">
        <ele>15</ele>
        <time>2019-04-11T14:44:42Z</time>
      </trkpt>
      <trkpt lat="50.46758" lon="3.45028">
        <ele>16</ele>
        <time>2019-04-11T14:44:48Z</time>
      </trkpt>
      <trkpt lat="50.46755" lon="3.45034">
        <ele>16</ele>
        <time>2019-04-11T14:44:49Z</time>
      </trkpt>
      <trkpt lat="50.46734" lon="3.45073">
        <ele>15</ele>
        <time>2019-04-11T14:44:56Z</time>
      </trkpt>
      <trkpt lat="50.467" lon="3.45118">
        <ele>15</ele>
        <time>2019-04-11T14:45:05Z</time>
      </trkpt>
      <trkpt lat="50.46662" lon="3.45168">
        <ele>14</ele>
        <time>2019-04-11T14:45:15Z</time>
      </trkpt>
      <trkpt lat="50.46658" lon="3.45173">
        <ele>14</ele>
        <time>2019-04-11T14:45:16Z</time>
      </trkpt>
      <trkpt lat="50.46631" lon="3.4521">
        <ele>15</ele>
        <time>2019-04-11T14:45:24Z</time>
      </trkpt>
      <trkpt lat="50.46626" lon="3.45218">
        <ele>15</ele>
        <time>2019-04-11T14:45:28Z</time>
      </trkpt>
      <trkpt lat="50.46616" lon="3.45229">
        <ele>14</ele>
        <time>2019-04-11T14:45:36Z</time>
      </trkpt>
      <trkpt lat="50.46607" lon="3.45232">
        <ele>14</ele>
        <time>2019-04-11T14:45:43Z</time>
      </trkpt>
      <trkpt lat="50.466" lon="3.4523">
        <ele>13</ele>
        <time>2019-04-11T14:46:12Z</time>
      </trkpt>
      <trkpt lat="50.46597" lon="3.45229">
        <ele>13</ele>
        <time>2019-04-11T14:46:13Z</time>
      </trkpt>
      <trkpt lat="50.4659" lon="3.45229">
        <ele>11</ele>
        <time>2019-04-11T14:46:16Z</time>
      </trkpt>
      <trkpt lat="50.46589" lon="3.45229">
        <ele>11</ele>
        <time>2019-04-11T14:46:17Z</time>
      </trkpt>
      <trkpt lat="50.46587" lon="3.45231">
        <ele>10</ele>
        <time>2019-04-11T14:46:18Z</time>
      </trkpt>
      <trkpt lat="50.46586" lon="3.45234">
        <ele>9</ele>
        <time>2019-04-11T14:46:20Z</time>
      </trkpt>
      <trkpt lat="50.46586" lon="3.45235">
        <ele>9</ele>
        <time>2019-04-11T14:46:21Z</time>
      </trkpt>
      <trkpt lat="50.46585" lon="3.45238">
        <ele>7</ele>
        <time>2019-04-11T14:46:22Z</time>
      </trkpt>
      <trkpt lat="50.46584" lon="3.45245">
        <ele>6</ele>
        <time>2019-04-11T14:46:24Z</time>
      </trkpt>
      <trkpt lat="50.46586" lon="3.45252">
        <ele>6</ele>
        <time>2019-04-11T14:46:26Z</time>
      </trkpt>
      <trkpt lat="50.46587" lon="3.45264">
        <ele>6</ele>
        <time>2019-04-11T14:46:29Z</time>
      </trkpt>
      <trkpt lat="50.46592" lon="3.45272">
        <ele>6</ele>
        <time>2019-04-11T14:46:31Z</time>
      </trkpt>
      <trkpt lat="50.46603" lon="3.45285">
        <ele>7</ele>
        <time>2019-04-11T14:46:35Z</time>
      </trkpt>
      <trkpt lat="50.46605" lon="3.45289">
        <ele>7</ele>
        <time>2019-04-11T14:46:36Z</time>
      </trkpt>
      <trkpt lat="50.46614" lon="3.45311">
        <ele>8</ele>
        <time>2019-04-11T14:46:40Z</time>
      </trkpt>
      <trkpt lat="50.46619" lon="3.45324">
        <ele>8</ele>
        <time>2019-04-11T14:46:42Z</time>
      </trkpt>
      <trkpt lat="50.46622" lon="3.4533">
        <ele>9</ele>
        <time>2019-04-11T14:46:43Z</time>
      </trkpt>
      <trkpt lat="50.46631" lon="3.45345">
        <ele>9</ele>
        <time>2019-04-11T14:46:46Z</time>
      </trkpt>
      <trkpt lat="50.46642" lon="3.4536">
        <ele>10</ele>
        <time>2019-04-11T14:46:49Z</time>
      </trkpt>
      <trkpt lat="50.46659" lon="3.45384">
        <ele>10</ele>
        <time>2019-04-11T14:46:54Z</time>
      </trkpt>
      <trkpt lat="50.46689" lon="3.45419">
        <ele>11</ele>
        <time>2019-04-11T14:47:02Z</time>
      </trkpt>
      <trkpt lat="50.46716" lon="3.45444">
        <ele>12</ele>
        <time>2019-04-11T14:47:09Z</time>
      </trkpt>
      <trkpt lat="50.46719" lon="3.45449">
        <ele>12</ele>
        <time>2019-04-11T14:47:10Z</time>
      </trkpt>
      <trkpt lat="50.46726" lon="3.45465">
        <ele>12</ele>
        <time>2019-04-11T14:47:13Z</time>
      </trkpt>
      <trkpt lat="50.4673" lon="3.45478">
        <ele>12</ele>
        <time>2019-04-11T14:47:15Z</time>
      </trkpt>
      <trkpt lat="50.46733" lon="3.45492">
        <ele>12</ele>
        <time>2019-04-11T14:47:17Z</time>
      </trkpt>
      <trkpt lat="50.46735" lon="3.45507">
        <ele>12</ele>
        <time>2019-04-11T14:47:19Z</time>
      </trkpt>
      <trkpt lat="50.46741" lon="3.45544">
        <ele>13</ele>
        <time>2019-04-11T14:47:25Z</time>
      </trkpt>
      <trkpt lat="50.46742" lon="3.45549">
        <ele>13</ele>
        <time>2019-04-11T14:47:26Z</time>
      </trkpt>
      <trkpt lat="50.4675" lon="3.45577">
        <ele>14</ele>
        <time>2019-04-11T14:47:31Z</time>
      </trkpt>
      <trkpt lat="50.46752" lon="3.45582">
        <ele>14</ele>
        <time>2019-04-11T14:47:32Z</time>
      </trkpt>
      <trkpt lat="50.46764" lon="3.45609">
        <ele>15</ele>
        <time>2019-04-11T14:47:38Z</time>
      </trkpt>
      <trkpt lat="50.4677" lon="3.45624">
        <ele>15</ele>
        <time>2019-04-11T14:47:41Z</time>
      </trkpt>
      <trkpt lat="50.46779" lon="3.45645">
        <ele>16</ele>
        <time>2019-04-11T14:47:45Z</time>
      </trkpt>
      <trkpt lat="50.46787" lon="3.4566">
        <ele>16</ele>
        <time>2019-04-11T14:47:48Z</time>
      </trkpt>
      <trkpt lat="50.468" lon="3.45679">
        <ele>17</ele>
        <time>2019-04-11T14:47:52Z</time>
      </trkpt>
      <trkpt lat="50.46803" lon="3.45684">
        <ele>17</ele>
        <time>2019-04-11T14:47:53Z</time>
      </trkpt>
      <trkpt lat="50.46823" lon="3.45711">
        <ele>18</ele>
        <time>2019-04-11T14:48:00Z</time>
      </trkpt>
      <trkpt lat="50.46846" lon="3.4574">
        <ele>18</ele>
        <time>2019-04-11T14:48:07Z</time>
      </trkpt>
      <trkpt lat="50.4687" lon="3.4577">
        <ele>18</ele>
        <time>2019-04-11T14:48:14Z</time>
      </trkpt>
      <trkpt lat="50.46876" lon="3.4578">
        <ele>18</ele>
        <time>2019-04-11T14:48:16Z</time>
      </trkpt>
      <trkpt lat="50.46891" lon="3.45807">
        <ele>18</ele>
        <time>2019-04-11T14:48:21Z</time>
      </trkpt>
      <trkpt lat="50.4692" lon="3.45857">
        <ele>18</ele>
        <time>2019-04-11T14:48:30Z</time>
      </trkpt>
      <trkpt lat="50.46945" lon="3.45904">
        <ele>18</ele>
        <time>2019-04-11T14:48:38Z</time>
      </trkpt>
      <trkpt lat="50.46963" lon="3.4594">
        <ele>18</ele>
        <time>2019-04-11T14:48:44Z</time>
      </trkpt>
      <trkpt lat="50.46971" lon="3.45958">
        <ele>18</ele>
        <time>2019-04-11T14:48:47Z</time>
      </trkpt>
      <trkpt lat="50.46981" lon="3.4599">
        <ele>18</ele>
        <time>2019-04-11T14:48:52Z</time>
      </trkpt>
      <trkpt lat="50.46983" lon="3.46006">
        <ele>18</ele>
        <time>2019-04-11T14:48:54Z</time>
      </trkpt>
      <trkpt lat="50.46983" lon="3.46021">
        <ele>18</ele>
        <time>2019-04-11T14:48:56Z</time>
      </trkpt>
      <trkpt lat="50.46982" lon="3.46036">
        <ele>17</ele>
        <time>2019-04-11T14:48:58Z</time>
      </trkpt>
      <trkpt lat="50.4698" lon="3.4606">
        <ele>17</ele>
        <time>2019-04-11T14:49:01Z</time>
      </trkpt>
      <trkpt lat="50.46972" lon="3.4612">
        <ele>17</ele>
        <time>2019-04-11T14:49:09Z</time>
      </trkpt>
      <trkpt lat="50.46971" lon="3.46133">
        <ele>16</ele>
        <time>2019-04-11T14:49:11Z</time>
      </trkpt>
      <trkpt lat="50.46971" lon="3.4614">
        <ele>16</ele>
        <time>2019-04-11T14:49:12Z</time>
      </trkpt>
      <trkpt lat="50.46972" lon="3.46163">
        <ele>16</ele>
        <time>2019-04-11T14:49:15Z</time>
      </trkpt>
      <trkpt lat="50.46975" lon="3.46203">
        <ele>16</ele>
        <time>2019-04-11T14:49:20Z</time>
      </trkpt>
      <trkpt lat="50.46975" lon="3.46219">
        <ele>15</ele>
        <time>2019-04-11T14:49:22Z</time>
      </trkpt>
      <trkpt lat="50.46974" lon="3.46227">
        <ele>15</ele>
        <time>2019-04-11T14:49:23Z</time>
      </trkpt>
      <trkpt lat="50.46968" lon="3.46265">
        <ele>16</ele>
        <time>2019-04-11T14:49:28Z</time>
      </trkpt>
      <trkpt lat="50.46962" lon="3.46302">
        <ele>15</ele>
        <time>2019-04-11T14:49:33Z</time>
      </trkpt>
      <trkpt lat="50.46964" lon="3.46317">
        <ele>15</ele>
        <time>2019-04-11T14:49:35Z</time>
      </trkpt>
      <trkpt lat="50.46978" lon="3.46338">
        <ele>16</ele>
        <time>2019-04-11T14:49:39Z</time>
      </trkpt>
      <trkpt lat="50.46982" lon="3.46342">
        <ele>16</ele>
        <time>2019-04-11T14:49:40Z</time>
      </trkpt>
      <trkpt lat="50.4701" lon="3.46383">
        <ele>15</ele>
        <time>2019-04-11T14:49:48Z</time>
      </trkpt>
      <trkpt lat="50.47014" lon="3.46389">
        <ele>15</ele>
        <time>2019-04-11T14:49:49Z</time>
      </trkpt>
      <trkpt lat="50.47024" lon="3.46414">
        <ele>16</ele>
        <time>2019-04-11T14:49:53Z</time>
      </trkpt>
      <trkpt lat="50.47032" lon="3.46448">
        <ele>17</ele>
        <time>2019-04-11T14:49:59Z</time>
      </trkpt>
      <trkpt lat="50.47035" lon="3.4648">
        <ele>17</ele>
        <time>2019-04-11T14:50:05Z</time>
      </trkpt>
      <trkpt lat="50.47037" lon="3.4649">
        <ele>17</ele>
        <time>2019-04-11T14:50:07Z</time>
      </trkpt>
      <trkpt lat="50.47038" lon="3.46516">
        <ele>18</ele>
        <time>2019-04-11T14:50:12Z</time>
      </trkpt>
      <trkpt lat="50.47035" lon="3.46544">
        <ele>18</ele>
        <time>2019-04-11T14:50:17Z</time>
      </trkpt>
      <trkpt lat="50.47032" lon="3.46554">
        <ele>19</ele>
        <time>2019-04-11T14:50:19Z</time>
      </trkpt>
      <trkpt lat="50.47018" lon="3.46592">
        <ele>19</ele>
        <time>2019-04-11T14:50:28Z</time>
      </trkpt>
      <trkpt lat="50.47016" lon="3.46596">
        <ele>19</ele>
        <time>2019-04-11T14:50:29Z</time>
      </trkpt>
      <trkpt lat="50.47009" lon="3.46617">
        <ele>20</ele>
        <time>2019-04-11T14:50:34Z</time>
      </trkpt>
      <trkpt lat="50.47004" lon="3.46648">
        <ele>20</ele>
        <time>2019-04-11T14:50:40Z</time>
      </trkpt>
      <trkpt lat="50.47018" lon="3.46667">
        <ele>19</ele>
        <time>2019-04-11T14:50:44Z</time>
      </trkpt>
      <trkpt lat="50.47022" lon="3.46672">
        <ele>18</ele>
        <time>2019-04-11T14:50:45Z</time>
      </trkpt>
      <trkpt lat="50.47028" lon="3.46683">
        <ele>17</ele>
        <time>2019-04-11T14:50:47Z</time>
      </trkpt>
      <trkpt lat="50.47031" lon="3.4669">
        <ele>17</ele>
        <time>2019-04-11T14:50:48Z</time>
      </trkpt>
      <trkpt lat="50.47039" lon="3.46701">
        <ele>16</ele>
        <time>2019-04-11T14:50:50Z</time>
      </trkpt>
      <trkpt lat="50.47048" lon="3.46709">
        <ele>16</ele>
        <time>2019-04-11T14:50:52Z</time>
      </trkpt>
      <trkpt lat="50.47057" lon="3.46718">
        <ele>16</ele>
        <time>2019-04-11T14:50:54Z</time>
      </trkpt>
      <trkpt lat="50.47062" lon="3.46723">
        <ele>16</ele>
        <time>2019-04-11T14:50:55Z</time>
      </trkpt>
      <trkpt lat="50.47095" lon="3.46749">
        <ele>15</ele>
        <time>2019-04-11T14:51:02Z</time>
      </trkpt>
      <trkpt lat="50.47112" lon="3.46765">
        <ele>16</ele>
        <time>2019-04-11T14:51:06Z</time>
      </trkpt>
      <trkpt lat="50.47116" lon="3.46776">
        <ele>15</ele>
        <time>2019-04-11T14:51:08Z</time>
      </trkpt>
      <trkpt lat="50.47114" lon="3.46796">
        <ele>15</ele>
        <time>2019-04-11T14:51:11Z</time>
      </trkpt>
      <trkpt lat="50.47113" lon="3.46801">
        <ele>15</ele>
        <time>2019-04-11T14:51:12Z</time>
      </trkpt>
      <trkpt lat="50.47113" lon="3.46811">
        <ele>15</ele>
        <time>2019-04-11T14:51:14Z</time>
      </trkpt>
      <trkpt lat="50.47115" lon="3.46816">
        <ele>15</ele>
        <time>2019-04-11T14:51:15Z</time>
      </trkpt>
      <trkpt lat="50.47127" lon="3.46822">
        <ele>15</ele>
        <time>2019-04-11T14:51:18Z</time>
      </trkpt>
      <trkpt lat="50.47131" lon="3.46822">
        <ele>15</ele>
        <time>2019-04-11T14:51:19Z</time>
      </trkpt>
      <trkpt lat="50.47154" lon="3.46827">
        <ele>15</ele>
        <time>2019-04-11T14:51:24Z</time>
      </trkpt>
      <trkpt lat="50.47163" lon="3.46828">
        <ele>14</ele>
        <time>2019-04-11T14:51:26Z</time>
      </trkpt>
      <trkpt lat="50.47185" lon="3.46827">
        <ele>14</ele>
        <time>2019-04-11T14:51:31Z</time>
      </trkpt>
      <trkpt lat="50.47189" lon="3.46825">
        <ele>14</ele>
        <time>2019-04-11T14:51:32Z</time>
      </trkpt>
      <trkpt lat="50.47212" lon="3.46807">
        <ele>15</ele>
        <time>2019-04-11T14:51:38Z</time>
      </trkpt>
      <trkpt lat="50.47232" lon="3.46805">
        <ele>16</ele>
        <time>2019-04-11T14:51:43Z</time>
      </trkpt>
      <trkpt lat="50.47256" lon="3.46808">
        <ele>16</ele>
        <time>2019-04-11T14:51:50Z</time>
      </trkpt>
      <trkpt lat="50.47268" lon="3.46823">
        <ele>16</ele>
        <time>2019-04-11T14:51:54Z</time>
      </trkpt>
      <trkpt lat="50.47279" lon="3.46838">
        <ele>17</ele>
        <time>2019-04-11T14:51:58Z</time>
      </trkpt>
      <trkpt lat="50.4729" lon="3.46852">
        <ele>17</ele>
        <time>2019-04-11T14:52:02Z</time>
      </trkpt>
      <trkpt lat="50.47307" lon="3.46876">
        <ele>18</ele>
        <time>2019-04-11T14:52:08Z</time>
      </trkpt>
      <trkpt lat="50.47311" lon="3.46881">
        <ele>18</ele>
        <time>2019-04-11T14:52:09Z</time>
      </trkpt>
      <trkpt lat="50.47332" lon="3.46907">
        <ele>18</ele>
        <time>2019-04-11T14:52:15Z</time>
      </trkpt>
      <trkpt lat="50.47336" lon="3.46911">
        <ele>18</ele>
        <time>2019-04-11T14:52:16Z</time>
      </trkpt>
      <trkpt lat="50.47348" lon="3.46931">
        <ele>18</ele>
        <time>2019-04-11T14:52:21Z</time>
      </trkpt>
      <trkpt lat="50.47365" lon="3.46956">
        <ele>18</ele>
        <time>2019-04-11T14:52:27Z</time>
      </trkpt>
      <trkpt lat="50.47381" lon="3.46978">
        <ele>19</ele>
        <time>2019-04-11T14:52:32Z</time>
      </trkpt>
      <trkpt lat="50.4739" lon="3.46991">
        <ele>18</ele>
        <time>2019-04-11T14:52:35Z</time>
      </trkpt>
      <trkpt lat="50.47417" lon="3.47027">
        <ele>19</ele>
        <time>2019-04-11T14:52:43Z</time>
      </trkpt>
      <trkpt lat="50.47436" lon="3.47056">
        <ele>19</ele>
        <time>2019-04-11T14:52:50Z</time>
      </trkpt>
      <trkpt lat="50.47436" lon="3.47065">
        <ele>19</ele>
        <time>2019-04-11T14:52:54Z</time>
      </trkpt>
      <trkpt lat="50.47438" lon="3.47078">
        <ele>19</ele>
        <time>2019-04-11T14:52:59Z</time>
      </trkpt>
      <trkpt lat="50.47442" lon="3.47081">
        <ele>19</ele>
        <time>2019-04-11T14:53:00Z</time>
      </trkpt>
      <trkpt lat="50.47461" lon="3.47094">
        <ele>19</ele>
        <time>2019-04-11T14:53:04Z</time>
      </trkpt>
      <trkpt lat="50.4747" lon="3.47103">
        <ele>19</ele>
        <time>2019-04-11T14:53:06Z</time>
      </trkpt>
      <trkpt lat="50.47486" lon="3.47124">
        <ele>19</ele>
        <time>2019-04-11T14:53:10Z</time>
      </trkpt>
      <trkpt lat="50.47524" lon="3.47175">
        <ele>20</ele>
        <time>2019-04-11T14:53:20Z</time>
      </trkpt>
      <trkpt lat="50.47546" lon="3.47205">
        <ele>20</ele>
        <time>2019-04-11T14:53:27Z</time>
      </trkpt>
      <trkpt lat="50.47575" lon="3.47245">
        <ele>20</ele>
        <time>2019-04-11T14:53:36Z</time>
      </trkpt>
      <trkpt lat="50.47596" lon="3.47275">
        <ele>20</ele>
        <time>2019-04-11T14:53:43Z</time>
      </trkpt>
      <trkpt lat="50.47607" lon="3.47292">
        <ele>21</ele>
        <time>2019-04-11T14:53:47Z</time>
      </trkpt>
      <trkpt lat="50.47612" lon="3.473">
        <ele>21</ele>
        <time>2019-04-11T14:53:49Z</time>
      </trkpt>
      <trkpt lat="50.47621" lon="3.47319">
        <ele>21</ele>
        <time>2019-04-11T14:53:54Z</time>
      </trkpt>
      <trkpt lat="50.47631" lon="3.47339">
        <ele>21</ele>
        <time>2019-04-11T14:54:00Z</time>
      </trkpt>
      <trkpt lat="50.47632" lon="3.47346">
        <ele>20</ele>
        <time>2019-04-11T14:55:45Z</time>
      </trkpt>
      <trkpt lat="50.47634" lon="3.47353">
        <ele>20</ele>
        <time>2019-04-11T14:55:48Z</time>
      </trkpt>
      <trkpt lat="50.47644" lon="3.47375">
        <ele>21</ele>
        <time>2019-04-11T14:55:53Z</time>
      </trkpt>
      <trkpt lat="50.47653" lon="3.47395">
        <ele>21</ele>
        <time>2019-04-11T14:55:57Z</time>
      </trkpt>
      <trkpt lat="50.47656" lon="3.474">
        <ele>21</ele>
        <time>2019-04-11T14:55:58Z</time>
      </trkpt>
      <trkpt lat="50.47679" lon="3.47444">
        <ele>21</ele>
        <time>2019-04-11T14:56:06Z</time>
      </trkpt>
      <trkpt lat="50.47707" lon="3.47484">
        <ele>21</ele>
        <time>2019-04-11T14:56:14Z</time>
      </trkpt>
      <trkpt lat="50.47734" lon="3.47513">
        <ele>21</ele>
        <time>2019-04-11T14:56:21Z</time>
      </trkpt>
      <trkpt lat="50.47779" lon="3.47562">
        <ele>21</ele>
        <time>2019-04-11T14:56:32Z</time>
      </trkpt>
      <trkpt lat="50.47783" lon="3.47567">
        <ele>21</ele>
        <time>2019-04-11T14:56:33Z</time>
      </trkpt>
      <trkpt lat="50.47813" lon="3.47612">
        <ele>21</ele>
        <time>2019-04-11T14:56:41Z</time>
      </trkpt>
      <trkpt lat="50.47851" lon="3.47677">
        <ele>21</ele>
        <time>2019-04-11T14:56:52Z</time>
      </trkpt>
      <trkpt lat="50.47863" lon="3.47692">
        <ele>21</ele>
        <time>2019-04-11T14:56:55Z</time>
      </trkpt>
      <trkpt lat="50.47872" lon="3.47698">
        <ele>21</ele>
        <time>2019-04-11T14:56:57Z</time>
      </trkpt>
      <trkpt lat="50.47882" lon="3.47702">
        <ele>21</ele>
        <time>2019-04-11T14:56:59Z</time>
      </trkpt>
      <trkpt lat="50.47897" lon="3.47699">
        <ele>21</ele>
        <time>2019-04-11T14:57:02Z</time>
      </trkpt>
      <trkpt lat="50.47906" lon="3.47691">
        <ele>20</ele>
        <time>2019-04-11T14:57:04Z</time>
      </trkpt>
      <trkpt lat="50.4791" lon="3.47686">
        <ele>20</ele>
        <time>2019-04-11T14:57:05Z</time>
      </trkpt>
      <trkpt lat="50.47919" lon="3.47676">
        <ele>20</ele>
        <time>2019-04-11T14:57:07Z</time>
      </trkpt>
      <trkpt lat="50.47936" lon="3.47654">
        <ele>19</ele>
        <time>2019-04-11T14:57:12Z</time>
      </trkpt>
      <trkpt lat="50.47945" lon="3.47643">
        <ele>19</ele>
        <time>2019-04-11T14:57:15Z</time>
      </trkpt>
      <trkpt lat="50.47961" lon="3.4762">
        <ele>19</ele>
        <time>2019-04-11T14:57:20Z</time>
      </trkpt>
      <trkpt lat="50.47984" lon="3.47592">
        <ele>18</ele>
        <time>2019-04-11T14:57:27Z</time>
      </trkpt>
      <trkpt lat="50.48006" lon="3.47576">
        <ele>18</ele>
        <time>2019-04-11T14:57:34Z</time>
      </trkpt>
      <trkpt lat="50.48015" lon="3.47576">
        <ele>18</ele>
        <time>2019-04-11T14:57:36Z</time>
      </trkpt>
      <trkpt lat="50.48039" lon="3.47581">
        <ele>17</ele>
        <time>2019-04-11T14:57:41Z</time>
      </trkpt>
      <trkpt lat="50.48044" lon="3.47582">
        <ele>17</ele>
        <time>2019-04-11T14:57:42Z</time>
      </trkpt>
      <trkpt lat="50.48074" lon="3.47585">
        <ele>16</ele>
        <time>2019-04-11T14:57:48Z</time>
      </trkpt>
      <trkpt lat="50.48112" lon="3.4759">
        <ele>16</ele>
        <time>2019-04-11T14:57:56Z</time>
      </trkpt>
      <trkpt lat="50.4815" lon="3.47603">
        <ele>16</ele>
        <time>2019-04-11T14:58:04Z</time>
      </trkpt>
      <trkpt lat="50.48182" lon="3.47625">
        <ele>16</ele>
        <time>2019-04-11T14:58:11Z</time>
      </trkpt>
      <trkpt lat="50.48213" lon="3.4766">
        <ele>16</ele>
        <time>2019-04-11T14:58:19Z</time>
      </trkpt>
      <trkpt lat="50.48224" lon="3.47671">
        <ele>16</ele>
        <time>2019-04-11T14:58:22Z</time>
      </trkpt>
      <trkpt lat="50.48233" lon="3.47675">
        <ele>16</ele>
        <time>2019-04-11T14:58:24Z</time>
      </trkpt>
      <trkpt lat="50.48243" lon="3.47677">
        <ele>16</ele>
        <time>2019-04-11T14:58:26Z</time>
      </trkpt>
      <trkpt lat="50.48263" lon="3.47679">
        <ele>15</ele>
        <time>2019-04-11T14:58:30Z</time>
      </trkpt>
      <trkpt lat="50.4829" lon="3.47683">
        <ele>15</ele>
        <time>2019-04-11T14:58:36Z</time>
      </trkpt>
      <trkpt lat="50.48294" lon="3.47686">
        <ele>15</ele>
        <time>2019-04-11T14:58:37Z</time>
      </trkpt>
      <trkpt lat="50.48307" lon="3.47709">
        <ele>15</ele>
        <time>2019-04-11T14:58:41Z</time>
      </trkpt>
      <trkpt lat="50.48309" lon="3.47715">
        <ele>15</ele>
        <time>2019-04-11T14:58:42Z</time>
      </trkpt>
      <trkpt lat="50.4833" lon="3.47777">
        <ele>15</ele>
        <time>2019-04-11T14:58:51Z</time>
      </trkpt>
      <trkpt lat="50.48347" lon="3.47826">
        <ele>15</ele>
        <time>2019-04-11T14:58:58Z</time>
      </trkpt>
      <trkpt lat="50.48349" lon="3.47833">
        <ele>15</ele>
        <time>2019-04-11T14:58:59Z</time>
      </trkpt>
      <trkpt lat="50.48364" lon="3.47876">
        <ele>15</ele>
        <time>2019-04-11T14:59:06Z</time>
      </trkpt>
      <trkpt lat="50.48381" lon="3.47921">
        <ele>15</ele>
        <time>2019-04-11T14:59:13Z</time>
      </trkpt>
      <trkpt lat="50.48397" lon="3.47967">
        <ele>15</ele>
        <time>2019-04-11T14:59:21Z</time>
      </trkpt>
      <trkpt lat="50.48413" lon="3.47979">
        <ele>15</ele>
        <time>2019-04-11T14:59:26Z</time>
      </trkpt>
      <trkpt lat="50.48423" lon="3.47969">
        <ele>15</ele>
        <time>2019-04-11T14:59:29Z</time>
      </trkpt>
      <trkpt lat="50.48429" lon="3.47957">
        <ele>14</ele>
        <time>2019-04-11T14:59:31Z</time>
      </trkpt>
      <trkpt lat="50.48434" lon="3.47946">
        <ele>14</ele>
        <time>2019-04-11T14:59:33Z</time>
      </trkpt>
      <trkpt lat="50.4844" lon="3.47935">
        <ele>13</ele>
        <time>2019-04-11T14:59:35Z</time>
      </trkpt>
      <trkpt lat="50.48464" lon="3.47909">
        <ele>13</ele>
        <time>2019-04-11T14:59:41Z</time>
      </trkpt>
      <trkpt lat="50.48496" lon="3.47888">
        <ele>13</ele>
        <time>2019-04-11T14:59:48Z</time>
      </trkpt>
      <trkpt lat="50.48528" lon="3.4787">
        <ele>14</ele>
        <time>2019-04-11T14:59:55Z</time>
      </trkpt>
      <trkpt lat="50.48547" lon="3.4786">
        <ele>15</ele>
        <time>2019-04-11T14:59:59Z</time>
      </trkpt>
      <trkpt lat="50.48565" lon="3.47851">
        <ele>15</ele>
        <time>2019-04-11T15:00:03Z</time>
      </trkpt>
      <trkpt lat="50.486" lon="3.47832">
        <ele>15</ele>
        <time>2019-04-11T15:00:11Z</time>
      </trkpt>
      <trkpt lat="50.48645" lon="3.47812">
        <ele>15</ele>
        <time>2019-04-11T15:00:21Z</time>
      </trkpt>
      <trkpt lat="50.48658" lon="3.47807">
        <ele>15</ele>
        <time>2019-04-11T15:00:24Z</time>
      </trkpt>
      <trkpt lat="50.4867" lon="3.47798">
        <ele>15</ele>
        <time>2019-04-11T15:00:27Z</time>
      </trkpt>
      <trkpt lat="50.48682" lon="3.47778">
        <ele>14</ele>
        <time>2019-04-11T15:00:31Z</time>
      </trkpt>
      <trkpt lat="50.48686" lon="3.47764">
        <ele>14</ele>
        <time>2019-04-11T15:00:33Z</time>
      </trkpt>
      <trkpt lat="50.48693" lon="3.47728">
        <ele>14</ele>
        <time>2019-04-11T15:00:38Z</time>
      </trkpt>
      <trkpt lat="50.48707" lon="3.47655">
        <ele>13</ele>
        <time>2019-04-11T15:00:48Z</time>
      </trkpt>
      <trkpt lat="50.48721" lon="3.4759">
        <ele>13</ele>
        <time>2019-04-11T15:00:57Z</time>
      </trkpt>
      <trkpt lat="50.48734" lon="3.4753">
        <ele>13</ele>
        <time>2019-04-11T15:01:06Z</time>
      </trkpt>
      <trkpt lat="50.48738" lon="3.47509">
        <ele>12</ele>
        <time>2019-04-11T15:01:09Z</time>
      </trkpt>
      <trkpt lat="50.48742" lon="3.47489">
        <ele>12</ele>
        <time>2019-04-11T15:01:12Z</time>
      </trkpt>
      <trkpt lat="50.48749" lon="3.47431">
        <ele>11</ele>
        <time>2019-04-11T15:01:20Z</time>
      </trkpt>
      <trkpt lat="50.48751" lon="3.47416">
        <ele>11</ele>
        <time>2019-04-11T15:01:22Z</time>
      </trkpt>
      <trkpt lat="50.48755" lon="3.47379">
        <ele>11</ele>
        <time>2019-04-11T15:01:27Z</time>
      </trkpt>
      <trkpt lat="50.48762" lon="3.47322">
        <ele>12</ele>
        <time>2019-04-11T15:01:35Z</time>
      </trkpt>
      <trkpt lat="50.48766" lon="3.47287">
        <ele>12</ele>
        <time>2019-04-11T15:01:40Z</time>
      </trkpt>
      <trkpt lat="50.48767" lon="3.47273">
        <ele>13</ele>
        <time>2019-04-11T15:01:42Z</time>
      </trkpt>
      <trkpt lat="50.48772" lon="3.47216">
        <ele>13</ele>
        <time>2019-04-11T15:01:50Z</time>
      </trkpt>
      <trkpt lat="50.48776" lon="3.47151">
        <ele>13</ele>
        <time>2019-04-11T15:01:59Z</time>
      </trkpt>
      <trkpt lat="50.48779" lon="3.47114">
        <ele>14</ele>
        <time>2019-04-11T15:02:04Z</time>
      </trkpt>
      <trkpt lat="50.48781" lon="3.47085">
        <ele>13</ele>
        <time>2019-04-11T15:02:08Z</time>
      </trkpt>
      <trkpt lat="50.48783" lon="3.47049">
        <ele>14</ele>
        <time>2019-04-11T15:02:13Z</time>
      </trkpt>
      <trkpt lat="50.48785" lon="3.47027">
        <ele>14</ele>
        <time>2019-04-11T15:02:16Z</time>
      </trkpt>
      <trkpt lat="50.48792" lon="3.4696">
        <ele>14</ele>
        <time>2019-04-11T15:02:25Z</time>
      </trkpt>
      <trkpt lat="50.48797" lon="3.46908">
        <ele>14</ele>
        <time>2019-04-11T15:02:32Z</time>
      </trkpt>
      <trkpt lat="50.48802" lon="3.46856">
        <ele>14</ele>
        <time>2019-04-11T15:02:39Z</time>
      </trkpt>
      <trkpt lat="50.48808" lon="3.46821">
        <ele>13</ele>
        <time>2019-04-11T15:02:44Z</time>
      </trkpt>
      <trkpt lat="50.48811" lon="3.46814">
        <ele>13</ele>
        <time>2019-04-11T15:02:45Z</time>
      </trkpt>
      <trkpt lat="50.48832" lon="3.46768">
        <ele>13</ele>
        <time>2019-04-11T15:02:53Z</time>
      </trkpt>
      <trkpt lat="50.48857" lon="3.46712">
        <ele>14</ele>
        <time>2019-04-11T15:03:03Z</time>
      </trkpt>
      <trkpt lat="50.48867" lon="3.4669">
        <ele>14</ele>
        <time>2019-04-11T15:03:08Z</time>
      </trkpt>
      <trkpt lat="50.48872" lon="3.4668">
        <ele>14</ele>
        <time>2019-04-11T15:03:14Z</time>
      </trkpt>
      <trkpt lat="50.48879" lon="3.4667">
        <ele>13</ele>
        <time>2019-04-11T15:03:18Z</time>
      </trkpt>
      <trkpt lat="50.48891" lon="3.46647">
        <ele>14</ele>
        <time>2019-04-11T15:03:23Z</time>
      </trkpt>
      <trkpt lat="50.48913" lon="3.46616">
        <ele>13</ele>
        <time>2019-04-11T15:03:30Z</time>
      </trkpt>
      <trkpt lat="50.48934" lon="3.46595">
        <ele>13</ele>
        <time>2019-04-11T15:03:36Z</time>
      </trkpt>
      <trkpt lat="50.48966" lon="3.46562">
        <ele>13</ele>
        <time>2019-04-11T15:03:44Z</time>
      </trkpt>
      <trkpt lat="50.48998" lon="3.46531">
        <ele>14</ele>
        <time>2019-04-11T15:03:52Z</time>
      </trkpt>
      <trkpt lat="50.49031" lon="3.46497">
        <ele>13</ele>
        <time>2019-04-11T15:04:00Z</time>
      </trkpt>
      <trkpt lat="50.49066" lon="3.46463">
        <ele>13</ele>
        <time>2019-04-11T15:04:08Z</time>
      </trkpt>
      <trkpt lat="50.49102" lon="3.46426">
        <ele>13</ele>
        <time>2019-04-11T15:04:17Z</time>
      </trkpt>
      <trkpt lat="50.49134" lon="3.4639">
        <ele>13</ele>
        <time>2019-04-11T15:04:25Z</time>
      </trkpt>
      <trkpt lat="50.49169" lon="3.46345">
        <ele>13</ele>
        <time>2019-04-11T15:04:34Z</time>
      </trkpt>
      <trkpt lat="50.49173" lon="3.4634">
        <ele>12</ele>
        <time>2019-04-11T15:04:35Z</time>
      </trkpt>
      <trkpt lat="50.49195" lon="3.46313">
        <ele>13</ele>
        <time>2019-04-11T15:04:41Z</time>
      </trkpt>
      <trkpt lat="50.49219" lon="3.46277">
        <ele>12</ele>
        <time>2019-04-11T15:04:48Z</time>
      </trkpt>
      <trkpt lat="50.49241" lon="3.46234">
        <ele>12</ele>
        <time>2019-04-11T15:04:55Z</time>
      </trkpt>
      <trkpt lat="50.49267" lon="3.46175">
        <ele>13</ele>
        <time>2019-04-11T15:05:04Z</time>
      </trkpt>
      <trkpt lat="50.49294" lon="3.46114">
        <ele>13</ele>
        <time>2019-04-11T15:05:14Z</time>
      </trkpt>
      <trkpt lat="50.4932" lon="3.46067">
        <ele>13</ele>
        <time>2019-04-11T15:05:23Z</time>
      </trkpt>
      <trkpt lat="50.49345" lon="3.46024">
        <ele>12</ele>
        <time>2019-04-11T15:05:31Z</time>
      </trkpt>
      <trkpt lat="50.49376" lon="3.45967">
        <ele>12</ele>
        <time>2019-04-11T15:05:41Z</time>
      </trkpt>
      <trkpt lat="50.49392" lon="3.45922">
        <ele>12</ele>
        <time>2019-04-11T15:05:48Z</time>
      </trkpt>
      <trkpt lat="50.49402" lon="3.4588">
        <ele>12</ele>
        <time>2019-04-11T15:05:55Z</time>
      </trkpt>
      <trkpt lat="50.49405" lon="3.45869">
        <ele>11</ele>
        <time>2019-04-11T15:05:57Z</time>
      </trkpt>
      <trkpt lat="50.4941" lon="3.45846">
        <ele>10</ele>
        <time>2019-04-11T15:06:01Z</time>
      </trkpt>
      <trkpt lat="50.49414" lon="3.45828">
        <ele>9</ele>
        <time>2019-04-11T15:06:04Z</time>
      </trkpt>
      <trkpt lat="50.49419" lon="3.45808">
        <ele>8</ele>
        <time>2019-04-11T15:06:07Z</time>
      </trkpt>
      <trkpt lat="50.49422" lon="3.45795">
        <ele>7</ele>
        <time>2019-04-11T15:06:09Z</time>
      </trkpt>
      <trkpt lat="50.49427" lon="3.45775">
        <ele>5</ele>
        <time>2019-04-11T15:06:12Z</time>
      </trkpt>
      <trkpt lat="50.49428" lon="3.45769">
        <ele>5</ele>
        <time>2019-04-11T15:06:13Z</time>
      </trkpt>
      <trkpt lat="50.4943" lon="3.45762">
        <ele>4</ele>
        <time>2019-04-11T15:06:14Z</time>
      </trkpt>
      <trkpt lat="50.49433" lon="3.4575">
        <ele>3</ele>
        <time>2019-04-11T15:06:16Z</time>
      </trkpt>
      <trkpt lat="50.4944" lon="3.45713">
        <ele>4</ele>
        <time>2019-04-11T15:06:21Z</time>
      </trkpt>
      <trkpt lat="50.49441" lon="3.45706">
        <ele>4</ele>
        <time>2019-04-11T15:06:22Z</time>
      </trkpt>
      <trkpt lat="50.49452" lon="3.45656">
        <ele>5</ele>
        <time>2019-04-11T15:06:29Z</time>
      </trkpt>
      <trkpt lat="50.49459" lon="3.45629">
        <ele>5</ele>
        <time>2019-04-11T15:06:33Z</time>
      </trkpt>
      <trkpt lat="50.49465" lon="3.45601">
        <ele>6</ele>
        <time>2019-04-11T15:06:37Z</time>
      </trkpt>
      <trkpt lat="50.49474" lon="3.45559">
        <ele>6</ele>
        <time>2019-04-11T15:06:43Z</time>
      </trkpt>
      <trkpt lat="50.49476" lon="3.45545">
        <ele>7</ele>
        <time>2019-04-11T15:06:45Z</time>
      </trkpt>
      <trkpt lat="50.49481" lon="3.45522">
        <ele>9</ele>
        <time>2019-04-11T15:06:49Z</time>
      </trkpt>
      <trkpt lat="50.49483" lon="3.45517">
        <ele>9</ele>
        <time>2019-04-11T15:06:50Z</time>
      </trkpt>
      <trkpt lat="50.49486" lon="3.455">
        <ele>10</ele>
        <time>2019-04-11T15:06:53Z</time>
      </trkpt>
      <trkpt lat="50.49489" lon="3.4549">
        <ele>10</ele>
        <time>2019-04-11T15:06:55Z</time>
      </trkpt>
      <trkpt lat="50.49492" lon="3.45475">
        <ele>11</ele>
        <time>2019-04-11T15:06:59Z</time>
      </trkpt>
      <trkpt lat="50.49496" lon="3.45457">
        <ele>11</ele>
        <time>2019-04-11T15:07:03Z</time>
      </trkpt>
      <trkpt lat="50.49497" lon="3.45445">
        <ele>12</ele>
        <time>2019-04-11T15:07:05Z</time>
      </trkpt>
      <trkpt lat="50.49499" lon="3.45439">
        <ele>12</ele>
        <time>2019-04-11T15:07:06Z</time>
      </trkpt>
      <trkpt lat="50.49508" lon="3.45409">
        <ele>13</ele>
        <time>2019-04-11T15:07:11Z</time>
      </trkpt>
      <trkpt lat="50.49522" lon="3.45379">
        <ele>13</ele>
        <time>2019-04-11T15:07:17Z</time>
      </trkpt>
      <trkpt lat="50.49538" lon="3.45349">
        <ele>12</ele>
        <time>2019-04-11T15:07:23Z</time>
      </trkpt>
      <trkpt lat="50.49565" lon="3.45313">
        <ele>12</ele>
        <time>2019-04-11T15:07:31Z</time>
      </trkpt>
      <trkpt lat="50.49583" lon="3.45293">
        <ele>12</ele>
        <time>2019-04-11T15:07:36Z</time>
      </trkpt>
      <trkpt lat="50.49591" lon="3.45286">
        <ele>12</ele>
        <time>2019-04-11T15:07:38Z</time>
      </trkpt>
      <trkpt lat="50.49618" lon="3.45265">
        <ele>12</ele>
        <time>2019-04-11T15:07:45Z</time>
      </trkpt>
      <trkpt lat="50.49645" lon="3.4525">
        <ele>13</ele>
        <time>2019-04-11T15:07:51Z</time>
      </trkpt>
      <trkpt lat="50.49684" lon="3.4523">
        <ele>13</ele>
        <time>2019-04-11T15:07:59Z</time>
      </trkpt>
      <trkpt lat="50.49724" lon="3.45212">
        <ele>13</ele>
        <time>2019-04-11T15:08:07Z</time>
      </trkpt>
      <trkpt lat="50.49744" lon="3.45204">
        <ele>13</ele>
        <time>2019-04-11T15:08:11Z</time>
      </trkpt>
      <trkpt lat="50.49759" lon="3.45199">
        <ele>13</ele>
        <time>2019-04-11T15:08:14Z</time>
      </trkpt>
      <trkpt lat="50.49804" lon="3.45185">
        <ele>13</ele>
        <time>2019-04-11T15:08:23Z</time>
      </trkpt>
      <trkpt lat="50.49848" lon="3.45163">
        <ele>13</ele>
        <time>2019-04-11T15:08:32Z</time>
      </trkpt>
      <trkpt lat="50.49878" lon="3.45148">
        <ele>14</ele>
        <time>2019-04-11T15:08:39Z</time>
      </trkpt>
      <trkpt lat="50.49903" lon="3.45134">
        <ele>13</ele>
        <time>2019-04-11T15:08:46Z</time>
      </trkpt>
      <trkpt lat="50.49922" lon="3.4512">
        <ele>12</ele>
        <time>2019-04-11T15:08:52Z</time>
      </trkpt>
      <trkpt lat="50.49932" lon="3.45118">
        <ele>12</ele>
        <time>2019-04-11T15:08:55Z</time>
      </trkpt>
      <trkpt lat="50.49935" lon="3.45119">
        <ele>12</ele>
        <time>2019-04-11T15:08:56Z</time>
      </trkpt>
      <trkpt lat="50.49945" lon="3.45136">
        <ele>13</ele>
        <time>2019-04-11T15:09:00Z</time>
      </trkpt>
      <trkpt lat="50.49947" lon="3.45142">
        <ele>13</ele>
        <time>2019-04-11T15:09:01Z</time>
      </trkpt>
      <trkpt lat="50.49955" lon="3.4516">
        <ele>13</ele>
        <time>2019-04-11T15:09:04Z</time>
      </trkpt>
      <trkpt lat="50.49965" lon="3.45174">
        <ele>14</ele>
        <time>2019-04-11T15:09:07Z</time>
      </trkpt>
      <trkpt lat="50.49978" lon="3.45185">
        <ele>14</ele>
        <time>2019-04-11T15:09:11Z</time>
      </trkpt>
      <trkpt lat="50.49982" lon="3.45187">
        <ele>14</ele>
        <time>2019-04-11T15:09:12Z</time>
      </trkpt>
      <trkpt lat="50.49989" lon="3.4519">
        <ele>14</ele>
        <time>2019-04-11T15:09:14Z</time>
      </trkpt>
      <trkpt lat="50.50002" lon="3.45194">
        <ele>14</ele>
        <time>2019-04-11T15:09:17Z</time>
      </trkpt>
      <trkpt lat="50.50023" lon="3.45199">
        <ele>15</ele>
        <time>2019-04-11T15:09:22Z</time>
      </trkpt>
      <trkpt lat="50.50031" lon="3.452">
        <ele>16</ele>
        <time>2019-04-11T15:09:24Z</time>
      </trkpt>
      <trkpt lat="50.50051" lon="3.45208">
        <ele>17</ele>
        <time>2019-04-11T15:09:30Z</time>
      </trkpt>
      <trkpt lat="50.50054" lon="3.45209">
        <ele>17</ele>
        <time>2019-04-11T15:09:31Z</time>
      </trkpt>
      <trkpt lat="50.50074" lon="3.4522">
        <ele>17</ele>
        <time>2019-04-11T15:09:37Z</time>
      </trkpt>
      <trkpt lat="50.50096" lon="3.45234">
        <ele>16</ele>
        <time>2019-04-11T15:09:42Z</time>
      </trkpt>
      <trkpt lat="50.50102" lon="3.45237">
        <ele>16</ele>
        <time>2019-04-11T15:09:43Z</time>
      </trkpt>
      <trkpt lat="50.50126" lon="3.45252">
        <ele>14</ele>
        <time>2019-04-11T15:09:47Z</time>
      </trkpt>
      <trkpt lat="50.50131" lon="3.45256">
        <ele>14</ele>
        <time>2019-04-11T15:09:48Z</time>
      </trkpt>
      <trkpt lat="50.50143" lon="3.45264">
        <ele>13</ele>
        <time>2019-04-11T15:09:50Z</time>
      </trkpt>
      <trkpt lat="50.50165" lon="3.45279">
        <ele>13</ele>
        <time>2019-04-11T15:09:54Z</time>
      </trkpt>
      <trkpt lat="50.50199" lon="3.45305">
        <ele>12</ele>
        <time>2019-04-11T15:10:01Z</time>
      </trkpt>
      <trkpt lat="50.50237" lon="3.45334">
        <ele>13</ele>
        <time>2019-04-11T15:10:09Z</time>
      </trkpt>
      <trkpt lat="50.50255" lon="3.45348">
        <ele>14</ele>
        <time>2019-04-11T15:10:13Z</time>
      </trkpt>
      <trkpt lat="50.50273" lon="3.45362">
        <ele>15</ele>
        <time>2019-04-11T15:10:17Z</time>
      </trkpt>
      <trkpt lat="50.5031" lon="3.45393">
        <ele>16</ele>
        <time>2019-04-11T15:10:26Z</time>
      </trkpt>
      <trkpt lat="50.50332" lon="3.45411">
        <ele>16</ele>
        <time>2019-04-11T15:10:31Z</time>
      </trkpt>
      <trkpt lat="50.5035" lon="3.45424">
        <ele>17</ele>
        <time>2019-04-11T15:10:35Z</time>
      </trkpt>
      <trkpt lat="50.50363" lon="3.45435">
        <ele>17</ele>
        <time>2019-04-11T15:10:40Z</time>
      </trkpt>
      <trkpt lat="50.50374" lon="3.45446">
        <ele>17</ele>
        <time>2019-04-11T15:10:46Z</time>
      </trkpt>
      <trkpt lat="50.50376" lon="3.45447">
        <ele>18</ele>
        <time>2019-04-11T15:10:47Z</time>
      </trkpt>
      <trkpt lat="50.50381" lon="3.4545">
        <ele>18</ele>
        <time>2019-04-11T15:10:51Z</time>
      </trkpt>
      <trkpt lat="50.50384" lon="3.45452">
        <ele>17</ele>
        <time>2019-04-11T15:10:54Z</time>
      </trkpt>
      <trkpt lat="50.50386" lon="3.45457">
        <ele>17</ele>
        <time>2019-04-11T15:10:57Z</time>
      </trkpt>
      <trkpt lat="50.50385" lon="3.45469">
        <ele>17</ele>
        <time>2019-04-11T15:11:01Z</time>
      </trkpt>
      <trkpt lat="50.50384" lon="3.45472">
        <ele>17</ele>
        <time>2019-04-11T15:11:02Z</time>
      </trkpt>
      <trkpt lat="50.50383" lon="3.45482">
        <ele>16</ele>
        <time>2019-04-11T15:11:05Z</time>
      </trkpt>
      <trkpt lat="50.50384" lon="3.45487">
        <ele>16</ele>
        <time>2019-04-11T15:11:07Z</time>
      </trkpt>
      <trkpt lat="50.50389" lon="3.45487">
        <ele>14</ele>
        <time>2019-04-11T15:22:39Z</time>
      </trkpt>
      <trkpt lat="50.5039" lon="3.45485">
        <ele>14</ele>
        <time>2019-04-11T15:22:40Z</time>
      </trkpt>
      <trkpt lat="50.50398" lon="3.4548">
        <ele>13</ele>
        <time>2019-04-11T15:22:45Z</time>
      </trkpt>
      <trkpt lat="50.50405" lon="3.45474">
        <ele>12</ele>
        <time>2019-04-11T15:22:50Z</time>
      </trkpt>
      <trkpt lat="50.50405" lon="3.45472">
        <ele>12</ele>
        <time>2019-04-11T15:22:51Z</time>
      </trkpt>
      <trkpt lat="50.50408" lon="3.45469">
        <ele>11</ele>
        <time>2019-04-11T15:22:54Z</time>
      </trkpt>
      <trkpt lat="50.50409" lon="3.45469">
        <ele>11</ele>
        <time>2019-04-11T15:22:55Z</time>
      </trkpt>
      <trkpt lat="50.50419" lon="3.45471">
        <ele>12</ele>
        <time>2019-04-11T15:22:59Z</time>
      </trkpt>
      <trkpt lat="50.50422" lon="3.45473">
        <ele>12</ele>
        <time>2019-04-11T15:23:00Z</time>
      </trkpt>
      <trkpt lat="50.50431" lon="3.45478">
        <ele>13</ele>
        <time>2019-04-11T15:23:03Z</time>
      </trkpt>
      <trkpt lat="50.50437" lon="3.45481">
        <ele>14</ele>
        <time>2019-04-11T15:23:06Z</time>
      </trkpt>
      <trkpt lat="50.50442" lon="3.45481">
        <ele>14</ele>
        <time>2019-04-11T15:23:09Z</time>
      </trkpt>
      <trkpt lat="50.50444" lon="3.45479">
        <ele>15</ele>
        <time>2019-04-11T15:23:11Z</time>
      </trkpt>
      <trkpt lat="50.50446" lon="3.45475">
        <ele>15</ele>
        <time>2019-04-11T15:23:13Z</time>
      </trkpt>
      <trkpt lat="50.5045" lon="3.45465">
        <ele>15</ele>
        <time>2019-04-11T15:23:17Z</time>
      </trkpt>
      <trkpt lat="50.50457" lon="3.45443">
        <ele>15</ele>
        <time>2019-04-11T15:23:23Z</time>
      </trkpt>
      <trkpt lat="50.50464" lon="3.45414">
        <ele>15</ele>
        <time>2019-04-11T15:23:28Z</time>
      </trkpt>
      <trkpt lat="50.50466" lon="3.45381">
        <ele>14</ele>
        <time>2019-04-11T15:23:33Z</time>
      </trkpt>
      <trkpt lat="50.50467" lon="3.45375">
        <ele>14</ele>
        <time>2019-04-11T15:23:34Z</time>
      </trkpt>
      <trkpt lat="50.50473" lon="3.4534">
        <ele>14</ele>
        <time>2019-04-11T15:23:41Z</time>
      </trkpt>
      <trkpt lat="50.50473" lon="3.45335">
        <ele>13</ele>
        <time>2019-04-11T15:23:42Z</time>
      </trkpt>
      <trkpt lat="50.50479" lon="3.45306">
        <ele>13</ele>
        <time>2019-04-11T15:23:48Z</time>
      </trkpt>
      <trkpt lat="50.50487" lon="3.45283">
        <ele>12</ele>
        <time>2019-04-11T15:23:53Z</time>
      </trkpt>
      <trkpt lat="50.50488" lon="3.45279">
        <ele>12</ele>
        <time>2019-04-11T15:23:54Z</time>
      </trkpt>
      <trkpt lat="50.50497" lon="3.45251">
        <ele>12</ele>
        <time>2019-04-11T15:24:01Z</time>
      </trkpt>
      <trkpt lat="50.50508" lon="3.45216">
        <ele>13</ele>
        <time>2019-04-11T15:24:08Z</time>
      </trkpt>
      <trkpt lat="50.50522" lon="3.45178">
        <ele>13</ele>
        <time>2019-04-11T15:24:16Z</time>
      </trkpt>
      <trkpt lat="50.5053" lon="3.45156">
        <ele>13</ele>
        <time>2019-04-11T15:24:21Z</time>
      </trkpt>
      <trkpt lat="50.50536" lon="3.45142">
        <ele>13</ele>
        <time>2019-04-11T15:24:24Z</time>
      </trkpt>
      <trkpt lat="50.5055" lon="3.45114">
        <ele>13</ele>
        <time>2019-04-11T15:24:31Z</time>
      </trkpt>
      <trkpt lat="50.50569" lon="3.4508">
        <ele>13</ele>
        <time>2019-04-11T15:24:38Z</time>
      </trkpt>
      <trkpt lat="50.50593" lon="3.4504">
        <ele>13</ele>
        <time>2019-04-11T15:24:46Z</time>
      </trkpt>
      <trkpt lat="50.50606" lon="3.45015">
        <ele>13</ele>
        <time>2019-04-11T15:24:51Z</time>
      </trkpt>
      <trkpt lat="50.5061" lon="3.45004">
        <ele>13</ele>
        <time>2019-04-11T15:24:53Z</time>
      </trkpt>
      <trkpt lat="50.50632" lon="3.44956">
        <ele>13</ele>
        <time>2019-04-11T15:25:02Z</time>
      </trkpt>
      <trkpt lat="50.50656" lon="3.4491">
        <ele>13</ele>
        <time>2019-04-11T15:25:11Z</time>
      </trkpt>
      <trkpt lat="50.50672" lon="3.44874">
        <ele>14</ele>
        <time>2019-04-11T15:25:18Z</time>
      </trkpt>
      <trkpt lat="50.50703" lon="3.44832">
        <ele>14</ele>
        <time>2019-04-11T15:25:27Z</time>
      </trkpt>
      <trkpt lat="50.50714" lon="3.44821">
        <ele>14</ele>
        <time>2019-04-11T15:25:30Z</time>
      </trkpt>
      <trkpt lat="50.50731" lon="3.44806">
        <ele>14</ele>
        <time>2019-04-11T15:25:34Z</time>
      </trkpt>
      <trkpt lat="50.5076" lon="3.4478">
        <ele>14</ele>
        <time>2019-04-11T15:25:41Z</time>
      </trkpt>
      <trkpt lat="50.508" lon="3.44744">
        <ele>14</ele>
        <time>2019-04-11T15:25:50Z</time>
      </trkpt>
      <trkpt lat="50.50831" lon="3.44717">
        <ele>13</ele>
        <time>2019-04-11T15:25:57Z</time>
      </trkpt>
      <trkpt lat="50.50869" lon="3.44685">
        <ele>13</ele>
        <time>2019-04-11T15:26:06Z</time>
      </trkpt>
      <trkpt lat="50.50886" lon="3.44671">
        <ele>13</ele>
        <time>2019-04-11T15:26:10Z</time>
      </trkpt>
      <trkpt lat="50.50899" lon="3.44662">
        <ele>13</ele>
        <time>2019-04-11T15:26:13Z</time>
      </trkpt>
      <trkpt lat="50.50934" lon="3.44629">
        <ele>13</ele>
        <time>2019-04-11T15:26:21Z</time>
      </trkpt>
      <trkpt lat="50.50973" lon="3.44595">
        <ele>13</ele>
        <time>2019-04-11T15:26:30Z</time>
      </trkpt>
      <trkpt lat="50.50982" lon="3.44588">
        <ele>13</ele>
        <time>2019-04-11T15:26:32Z</time>
      </trkpt>
      <trkpt lat="50.51003" lon="3.4457">
        <ele>13</ele>
        <time>2019-04-11T15:26:37Z</time>
      </trkpt>
      <trkpt lat="50.51054" lon="3.44525">
        <ele>12</ele>
        <time>2019-04-11T15:26:49Z</time>
      </trkpt>
      <trkpt lat="50.51058" lon="3.44521">
        <ele>13</ele>
        <time>2019-04-11T15:26:50Z</time>
      </trkpt>
      <trkpt lat="50.51071" lon="3.4451">
        <ele>12</ele>
        <time>2019-04-11T15:26:53Z</time>
      </trkpt>
      <trkpt lat="50.51089" lon="3.44495">
        <ele>13</ele>
        <time>2019-04-11T15:26:57Z</time>
      </trkpt>
      <trkpt lat="50.51132" lon="3.44458">
        <ele>12</ele>
        <time>2019-04-11T15:27:07Z</time>
      </trkpt>
      <trkpt lat="50.51165" lon="3.4443">
        <ele>11</ele>
        <time>2019-04-11T15:27:15Z</time>
      </trkpt>
      <trkpt lat="50.51206" lon="3.44402">
        <ele>12</ele>
        <time>2019-04-11T15:27:24Z</time>
      </trkpt>
      <trkpt lat="50.51242" lon="3.44385">
        <ele>12</ele>
        <time>2019-04-11T15:27:32Z</time>
      </trkpt>
      <trkpt lat="50.51255" lon="3.44379">
        <ele>12</ele>
        <time>2019-04-11T15:27:35Z</time>
      </trkpt>
      <trkpt lat="50.51275" lon="3.4437">
        <ele>12</ele>
        <time>2019-04-11T15:27:40Z</time>
      </trkpt>
      <trkpt lat="50.51312" lon="3.44356">
        <ele>11</ele>
        <time>2019-04-11T15:27:48Z</time>
      </trkpt>
      <trkpt lat="50.51344" lon="3.44352">
        <ele>12</ele>
        <time>2019-04-11T15:27:55Z</time>
      </trkpt>
      <trkpt lat="50.5134" lon="3.44349">
        <ele>17</ele>
      </trkpt>
      <trkpt lat="50.51388" lon="3.44241">
        <ele>16</ele>
      </trkpt>
      <trkpt lat="50.51428" lon="3.44162">
        <ele>15.7</ele>
      </trkpt>
      <trkpt lat="50.5146" lon="3.44108">
        <ele>15.1</ele>
      </trkpt>
      <trkpt lat="50.51475" lon="3.44086">
        <ele>15.1</ele>
      </trkpt>
      <trkpt lat="50.51492" lon="3.44065">
        <ele>14.6</ele>
      </trkpt>
      <trkpt lat="50.51492" lon="3.44065">
        <ele>14.6</ele>
      </trkpt>
      <trkpt lat="50.51492" lon="3.44065">
        <ele>19.7</ele>
      </trkpt>
      <trkpt lat="50.51514" lon="3.44047">
        <ele>15</ele>
      </trkpt>
      <trkpt lat="50.51595" lon="3.43999">
        <ele>15.4</ele>
      </trkpt>
      <trkpt lat="50.51583" lon="3.43897">
        <ele>16.2</ele>
      </trkpt>
      <trkpt lat="50.51579" lon="3.43856">
        <ele>16.5</ele>
      </trkpt>
      <trkpt lat="50.51578" lon="3.43822">
        <ele>16.7</ele>
      </trkpt>
      <trkpt lat="50.51578" lon="3.43816">
        <ele>16.7</ele>
      </trkpt>
      <trkpt lat="50.51579" lon="3.4378">
        <ele>16.5</ele>
      </trkpt>
      <trkpt lat="50.51588" lon="3.43735">
        <ele>16.8</ele>
      </trkpt>
      <trkpt lat="50.51595" lon="3.43711">
        <ele>16.7</ele>
      </trkpt>
      <trkpt lat="50.51606" lon="3.43692">
        <ele>16.6</ele>
      </trkpt>
      <trkpt lat="50.51621" lon="3.43677">
        <ele>16.5</ele>
      </trkpt>
      <trkpt lat="50.51685" lon="3.43587">
        <ele>16.9</ele>
      </trkpt>
      <trkpt lat="50.51691" lon="3.43575">
        <ele>17</ele>
      </trkpt>
      <trkpt lat="50.51678" lon="3.43556">
        <ele>17</ele>
      </trkpt>
      <trkpt lat="50.51656" lon="3.43513">
        <ele>16.8</ele>
      </trkpt>
      <trkpt lat="50.51639" lon="3.43485">
        <ele>16.8</ele>
      </trkpt>
      <trkpt lat="50.51616" lon="3.4345">
        <ele>16.6</ele>
      </trkpt>
      <trkpt lat="50.51586" lon="3.43405">
        <ele>15.8</ele>
      </trkpt>
      <trkpt lat="50.51572" lon="3.43377">
        <ele>14.7</ele>
      </trkpt>
      <trkpt lat="50.51551" lon="3.43317">
        <ele>14.6</ele>
      </trkpt>
      <trkpt lat="50.51545" lon="3.43295">
        <ele>14.5</ele>
      </trkpt>
      <trkpt lat="50.51537" lon="3.43274">
        <ele>14.5</ele>
      </trkpt>
      <trkpt lat="50.51531" lon="3.43248">
        <ele>14.6</ele>
      </trkpt>
      <trkpt lat="50.51526" lon="3.43216">
        <ele>14.6</ele>
      </trkpt>
      <trkpt lat="50.51524" lon="3.43177">
        <ele>14.7</ele>
      </trkpt>
      <trkpt lat="50.51525" lon="3.43141">
        <ele>14.6</ele>
      </trkpt>
      <trkpt lat="50.51527" lon="3.43125">
        <ele>14.5</ele>
      </trkpt>
      <trkpt lat="50.5155" lon="3.42874">
        <ele>14.5</ele>
      </trkpt>
      <trkpt lat="50.51586" lon="3.42484">
        <ele>16.6</ele>
      </trkpt>
      <trkpt lat="50.51589" lon="3.42448">
        <ele>16.8</ele>
      </trkpt>
      <trkpt lat="50.51591" lon="3.42429">
        <ele>16.5</ele>
      </trkpt>
      <trkpt lat="50.516" lon="3.42352">
        <ele>16.6</ele>
      </trkpt>
      <trkpt lat="50.516" lon="3.4234">
        <ele>16.5</ele>
      </trkpt>
      <trkpt lat="50.51599" lon="3.42334">
        <ele>16.5</ele>
      </trkpt>
      <trkpt lat="50.51599" lon="3.42329">
        <ele>16.9</ele>
      </trkpt>
      <trkpt lat="50.51578" lon="3.42252">
        <ele>19</ele>
      </trkpt>
      <trkpt lat="50.51557" lon="3.4218">
        <ele>22.1</ele>
      </trkpt>
      <trkpt lat="50.51539" lon="3.42113">
        <ele>24.7</ele>
      </trkpt>
      <trkpt lat="50.51538" lon="3.4211">
        <ele>24.7</ele>
      </trkpt>
      <trkpt lat="50.51531" lon="3.42102">
        <ele>24.9</ele>
      </trkpt>
      <trkpt lat="50.51529" lon="3.42101">
        <ele>24.9</ele>
      </trkpt>
      <trkpt lat="50.51527" lon="3.42099">
        <ele>25</ele>
      </trkpt>
      <trkpt lat="50.51524" lon="3.42095">
        <ele>25.1</ele>
      </trkpt>
      <trkpt lat="50.51524" lon="3.42088">
        <ele>25.1</ele>
      </trkpt>
      <trkpt lat="50.51524" lon="3.42085">
        <ele>25.1</ele>
      </trkpt>
      <trkpt lat="50.51526" lon="3.42081">
        <ele>25.9</ele>
      </trkpt>
      <trkpt lat="50.51525" lon="3.42069">
        <ele>25.9</ele>
      </trkpt>
      <trkpt lat="50.51524" lon="3.42066">
        <ele>25.9</ele>
      </trkpt>
      <trkpt lat="50.51497" lon="3.41998">
        <ele>26.1</ele>
      </trkpt>
      <trkpt lat="50.51493" lon="3.41989">
        <ele>26.2</ele>
      </trkpt>
      <trkpt lat="50.51488" lon="3.41975">
        <ele>26.4</ele>
      </trkpt>
      <trkpt lat="50.51481" lon="3.41949">
        <ele>26.6</ele>
      </trkpt>
      <trkpt lat="50.51483" lon="3.41947">
        <ele>26.6</ele>
      </trkpt>
      <trkpt lat="50.51492" lon="3.4194">
        <ele>26.7</ele>
      </trkpt>
      <trkpt lat="50.51509" lon="3.41928">
        <ele>26.9</ele>
      </trkpt>
      <trkpt lat="50.51547" lon="3.41932">
        <ele>26.8</ele>
      </trkpt>
      <trkpt lat="50.51787" lon="3.41924">
        <ele>23.7</ele>
      </trkpt>
      <trkpt lat="50.5181" lon="3.41922">
        <ele>23.6</ele>
      </trkpt>
      <trkpt lat="50.5187" lon="3.41916">
        <ele>24.3</ele>
      </trkpt>
      <trkpt lat="50.51885" lon="3.41915">
        <ele>24.2</ele>
      </trkpt>
      <trkpt lat="50.51967" lon="3.41907">
        <ele>24.2</ele>
      </trkpt>
      <trkpt lat="50.52003" lon="3.4191">
        <ele>24.2</ele>
      </trkpt>
      <trkpt lat="50.52078" lon="3.41927">
        <ele>23.6</ele>
      </trkpt>
      <trkpt lat="50.52093" lon="3.41931">
        <ele>24.2</ele>
      </trkpt>
      <trkpt lat="50.52245" lon="3.41964">
        <ele>26.3</ele>
      </trkpt>
      <trkpt lat="50.52275" lon="3.41979">
        <ele>26.7</ele>
      </trkpt>
      <trkpt lat="50.52366" lon="3.42">
        <ele>28</ele>
      </trkpt>
      <trkpt lat="50.52437" lon="3.42011">
        <ele>28.6</ele>
      </trkpt>
      <trkpt lat="50.52521" lon="3.42029">
        <ele>29.4</ele>
      </trkpt>
      <trkpt lat="50.52528" lon="3.42042">
        <ele>29.2</ele>
      </trkpt>
      <trkpt lat="50.52789" lon="3.42098">
        <ele>28.1</ele>
      </trkpt>
      <trkpt lat="50.52826" lon="3.42112">
        <ele>28.3</ele>
      </trkpt>
      <trkpt lat="50.52845" lon="3.42125">
        <ele>29</ele>
      </trkpt>
      <trkpt lat="50.52841" lon="3.42116">
        <ele>29</ele>
      </trkpt>
      <trkpt lat="50.52838" lon="3.42099">
        <ele>29.1</ele>
      </trkpt>
      <trkpt lat="50.5289" lon="3.42111">
        <ele>29.4</ele>
      </trkpt>
      <trkpt lat="50.52957" lon="3.42128">
        <ele>30.3</ele>
      </trkpt>
      <trkpt lat="50.52985" lon="3.42132">
        <ele>30.4</ele>
      </trkpt>
      <trkpt lat="50.53133" lon="3.42165">
        <ele>28.8</ele>
      </trkpt>
      <trkpt lat="50.53254" lon="3.42189">
        <ele>27.2</ele>
      </trkpt>
      <trkpt lat="50.53265" lon="3.42192">
        <ele>27</ele>
      </trkpt>
      <trkpt lat="50.53325" lon="3.42211">
        <ele>26</ele>
      </trkpt>
      <trkpt lat="50.53478" lon="3.42235">
        <ele>23</ele>
      </trkpt>
      <trkpt lat="50.53725" lon="3.42291">
        <ele>21</ele>
      </trkpt>
      <trkpt lat="50.53826" lon="3.42315">
        <ele>20.4</ele>
      </trkpt>
      <trkpt lat="50.53907" lon="3.42331">
        <ele>20</ele>
      </trkpt>
      <trkpt lat="50.53963" lon="3.42347">
        <ele>19.5</ele>
      </trkpt>
      <trkpt lat="50.53967" lon="3.42348">
        <ele>19.4</ele>
      </trkpt>
      <trkpt lat="50.53968" lon="3.42348">
        <ele>19.4</ele>
      </trkpt>
      <trkpt lat="50.53969" lon="3.42345">
        <ele>19.4</ele>
      </trkpt>
      <trkpt lat="50.53981" lon="3.423">
        <ele>18.9</ele>
      </trkpt>
      <trkpt lat="50.53985" lon="3.42287">
        <ele>18.8</ele>
      </trkpt>
      <trkpt lat="50.53958" lon="3.42219">
        <ele>18.5</ele>
      </trkpt>
      <trkpt lat="50.53921" lon="3.42138">
        <ele>18.7</ele>
      </trkpt>
      <trkpt lat="50.53902" lon="3.42096">
        <ele>19.5</ele>
      </trkpt>
      <trkpt lat="50.53899" lon="3.4209">
        <ele>19.6</ele>
      </trkpt>
      <trkpt lat="50.53897" lon="3.42084">
        <ele>19.6</ele>
      </trkpt>
      <trkpt lat="50.53894" lon="3.4207">
        <ele>19.7</ele>
      </trkpt>
      <trkpt lat="50.53893" lon="3.42042">
        <ele>19.8</ele>
      </trkpt>
      <trkpt lat="50.53897" lon="3.42011">
        <ele>19.6</ele>
      </trkpt>
      <trkpt lat="50.53912" lon="3.41925">
        <ele>18.5</ele>
      </trkpt>
      <trkpt lat="50.53914" lon="3.41915">
        <ele>18.1</ele>
      </trkpt>
      <trkpt lat="50.53916" lon="3.41904">
        <ele>18.4</ele>
      </trkpt>
      <trkpt lat="50.53921" lon="3.41899">
        <ele>18.3</ele>
      </trkpt>
      <trkpt lat="50.53926" lon="3.41895">
        <ele>18.4</ele>
      </trkpt>
      <trkpt lat="50.53937" lon="3.41893">
        <ele>18.5</ele>
      </trkpt>
      <trkpt lat="50.53947" lon="3.41896">
        <ele>18.6</ele>
      </trkpt>
      <trkpt lat="50.53984" lon="3.41947">
        <ele>18.6</ele>
      </trkpt>
      <trkpt lat="50.53993" lon="3.41954">
        <ele>18.5</ele>
      </trkpt>
      <trkpt lat="50.53993" lon="3.41954">
        <ele>19</ele>
      </trkpt>
      <trkpt lat="50.54001" lon="3.41956">
        <ele>18.2</ele>
      </trkpt>
      <trkpt lat="50.54016" lon="3.41952">
        <ele>18.2</ele>
      </trkpt>
      <trkpt lat="50.54018" lon="3.4195">
        <ele>18.2</ele>
      </trkpt>
      <trkpt lat="50.5402" lon="3.41949">
        <ele>18.2</ele>
      </trkpt>
      <trkpt lat="50.54097" lon="3.41889">
        <ele>18.9</ele>
      </trkpt>
      <trkpt lat="50.54108" lon="3.41883">
        <ele>19.1</ele>
      </trkpt>
      <trkpt lat="50.54115" lon="3.41882">
        <ele>19.1</ele>
      </trkpt>
      <trkpt lat="50.54123" lon="3.41883">
        <ele>19.2</ele>
      </trkpt>
      <trkpt lat="50.5413" lon="3.41888">
        <ele>19.3</ele>
      </trkpt>
      <trkpt lat="50.54172" lon="3.41948">
        <ele>19.9</ele>
      </trkpt>
      <trkpt lat="50.54176" lon="3.41951">
        <ele>19.8</ele>
      </trkpt>
      <trkpt lat="50.54187" lon="3.41949">
        <ele>19.8</ele>
      </trkpt>
      <trkpt lat="50.5418" lon="3.41882">
        <ele>20.2</ele>
      </trkpt>
      <trkpt lat="50.54176" lon="3.41843">
        <ele>20.1</ele>
      </trkpt>
      <trkpt lat="50.54158" lon="3.41681">
        <ele>20.8</ele>
      </trkpt>
      <trkpt lat="50.54152" lon="3.41642">
        <ele>20.8</ele>
      </trkpt>
      <trkpt lat="50.54141" lon="3.41601">
        <ele>20.8</ele>
      </trkpt>
      <trkpt lat="50.54054" lon="3.41353">
        <ele>21.8</ele>
      </trkpt>
      <trkpt lat="50.54048" lon="3.41329">
        <ele>22.3</ele>
      </trkpt>
      <trkpt lat="50.54043" lon="3.41311">
        <ele>22.4</ele>
      </trkpt>
      <trkpt lat="50.54036" lon="3.41185">
        <ele>23.3</ele>
      </trkpt>
      <trkpt lat="50.54024" lon="3.41041">
        <ele>22.8</ele>
      </trkpt>
      <trkpt lat="50.53969" lon="3.40683">
        <ele>25.6</ele>
      </trkpt>
      <trkpt lat="50.53954" lon="3.40627">
        <ele>25.4</ele>
      </trkpt>
      <trkpt lat="50.53943" lon="3.40587">
        <ele>25.3</ele>
      </trkpt>
      <trkpt lat="50.53934" lon="3.40545">
        <ele>25.4</ele>
      </trkpt>
      <trkpt lat="50.53916" lon="3.40441">
        <ele>24.7</ele>
      </trkpt>
    </trkseg>
  </trk>
</gpx>